BA8 / G-STBF 7700 Squawk Report (17th of September, 2019)

Aircraft B77W Reg No. G-STBF Age 7 years old
Model 777 Jet engines 2 First flight 10-02-12
Registered 21-02-12 Rollout 26-01-12 Delivered 21-02-12
Construction No. 40543 Line No. 0995 Series 336(ER)
ADSHEX 4065DE Airline name British Airways Owner N/A
Airfield based Heathrow~Gtr London~G First tracked 2017-07-14 03:53:00

Flight history for G-STBF

Route Flight No Date Playback
Heathrow (LHR) - Tokyo Intl (HND) BA7 2019-10-21 22:29:00
Guarulhos Gov Andre Franco Montoro (GRU) - Heathrow (LHR) BA246 2019-10-21 05:38:00
Heathrow (LHR) - Guarulhos Gov Andre Franco Montoro (GRU) BA247 2019-10-20 18:40:00
Ben Gurion (TLV) - Heathrow (LHR) BA164 2019-10-19 21:36:00
Heathrow (LHR) - Ben Gurion (TLV) BA165 2019-10-19 13:41:00
Sydney Airport (SYD) - Changi Intl (SIN) - Heathrow (LHR) BA16 2019-10-19 07:09:00
Sydney Airport (SYD) - Changi Intl (SIN) - Heathrow (LHR) BA16 2019-10-19 04:09:00
Heathrow (LHR) - Changi Intl (SIN) - Sydney Airport (SYD) BA15 2019-10-18 04:56:00
Heathrow (LHR) - Changi Intl (SIN) - Sydney Airport (SYD) BA15 2019-10-17 19:03:00
???? N/A 2019-10-16 18:53:00
???? N/A 2019-10-16 05:41:00
Sydney Airport (SYD) - Changi Intl (SIN) - Heathrow (LHR) BA16 2019-10-16 05:02:00
Sydney Airport (SYD) - Changi Intl (SIN) - Heathrow (LHR) BA16 2019-10-16 03:54:00
Heathrow (LHR) - Changi Intl (SIN) - Sydney Airport (SYD) BA15 2019-10-15 04:57:00
Heathrow (LHR) - Changi Intl (SIN) - Sydney Airport (SYD) BA15 2019-10-14 19:15:00
???? N/A 2019-10-13 18:06:00
Hong Kong Intl (HKG) - Heathrow (LHR) BA28 2019-10-13 05:58:00
???? N/A 2019-10-12 14:00:00
Heathrow (LHR) - Hong Kong Intl (HKG) BA27 2019-10-12 13:54:00
Capital Intl (PEK) - Heathrow (LHR) BA38 2019-10-11 14:50:00
Time Lat Lon Altitude Heading Speed Vertical Rate
2019-09-17 13:39:48 GMT 51.477676 -0.428467 0 272 8 0
2019-09-17 13:39:48 GMT 51.477676 -0.428467 0 180 11 0
2019-09-17 13:39:48 GMT 51.477676 -0.428467 0 180 13 0
2019-09-17 13:40:17 GMT 51.477615 -0.455322 0 270 90 0
2019-09-17 13:40:08 GMT 51.477665 -0.448305 150 270 148 -1024
2019-09-17 13:40:02 GMT 51.477695 -0.442867 0 270 145 0
2019-09-17 13:39:52 GMT 51.477676 -0.431956 -175 270 146 -640
2019-09-17 13:39:47 GMT 51.477722 -0.426759 -125 270 143 -640
2019-09-17 13:39:41 GMT 51.477745 -0.420990 175 270 149 -896
2019-09-17 13:39:34 GMT 51.477745 -0.409546 50 270 146 -704
2019-09-17 13:39:31 GMT 51.477745 -0.409546 75 270 146 -768
2019-09-17 13:39:24 GMT 51.477791 -0.398636 175 270 148 -896
2019-09-17 13:39:21 GMT 51.477791 -0.398636 225 270 148 -768
2019-09-17 13:39:13 GMT 51.477791 -0.390320 300 270 146 -704
2019-09-17 13:39:10 GMT 51.477814 -0.386600 350 270 146 -768
2019-09-17 13:39:04 GMT 51.477814 -0.380958 425 270 148 -832
2019-09-17 13:39:01 GMT 51.477859 -0.377024 525 270 147 -768
2019-09-17 13:38:57 GMT 51.477859 -0.372644 700 270 147 -704
2019-09-17 13:38:54 GMT 51.477882 -0.369415 575 270 147 -768
2019-09-17 13:38:50 GMT 51.477905 -0.364850 625 270 147 -768
2019-09-17 13:38:46 GMT 51.477905 -0.361361 650 270 147 -704
2019-09-17 13:38:42 GMT 51.477905 -0.356165 700 270 146 -704
2019-09-17 13:38:39 GMT 51.477928 -0.349808 775 270 151 -768
2019-09-17 13:38:33 GMT 51.477928 -0.346298 825 270 156 -960
2019-09-17 13:38:30 GMT 51.477978 -0.338821 1,050 270 175 -960
2019-09-17 13:38:22 GMT 51.477978 -0.333939 1,150 270 176 -832
2019-09-17 13:38:19 GMT 51.477978 -0.329971 1,000 270 171 -896
2019-09-17 13:38:16 GMT 51.477997 -0.325136 1,075 270 175 -960
2019-09-17 13:38:13 GMT 51.477997 -0.322538 1,125 270 175 -768
2019-09-17 13:38:10 GMT 51.477997 -0.317935 1,200 270 176 -960
2019-09-17 13:38:06 GMT 51.478024 -0.309296 1,275 270 177 -1088
2019-09-17 13:38:00 GMT 51.478043 -0.305390 1,700 270 177 -960
2019-09-17 13:37:56 GMT 51.478043 -0.300120 1,475 270 174 -768
2019-09-17 13:37:53 GMT 51.478024 -0.295792 1,450 270 172 -1088
2019-09-17 13:37:50 GMT 51.478069 -0.289154 1,525 270 172 -960
2019-09-17 13:37:47 GMT 51.478088 -0.283269 1,625 270 173 -896
2019-09-17 13:37:43 GMT 51.478088 -0.283269 1,600 270 173 -896
2019-09-17 13:37:40 GMT 51.478088 -0.279706 1,650 270 174 -896
2019-09-17 13:37:37 GMT 51.478088 -0.275623 1,675 270 175 -832
2019-09-17 13:37:34 GMT 51.478115 -0.271683 1,725 270 175 -896
2019-09-17 13:37:31 GMT 51.478134 -0.267829 1,825 270 176 -1024
2019-09-17 13:37:28 GMT 51.478115 -0.263901 1,875 270 177 -960
2019-09-17 13:37:24 GMT 51.478115 -0.252914 2,150 270 178 -832
2019-09-17 13:37:20 GMT 51.478115 -0.248108 1,975 270 181 -1088
2019-09-17 13:37:17 GMT 51.478115 -0.248108 2,025 270 183 -1024
2019-09-17 13:37:14 GMT 51.478134 -0.245188 2,075 270 185 -1024
2019-09-17 13:37:11 GMT 51.478165 -0.241165 2,100 270 185 -1024
2019-09-17 13:37:08 GMT 51.478180 -0.231455 2,175 270 190 -1024
2019-09-17 13:37:04 GMT 51.478180 -0.231455 2,250 270 192 -1152
2019-09-17 13:37:01 GMT 51.478180 -0.228041 2,300 270 193 -1088
2019-09-17 13:36:58 GMT 51.478180 -0.222919 2,375 270 191 -1088
2019-09-17 13:36:55 GMT 51.478210 -0.219269 2,375 270 191 -1088
2019-09-17 13:36:52 GMT 51.478180 -0.214976 2,450 270 191 -1152
2019-09-17 13:36:49 GMT 51.478210 -0.203934 2,575 270 193 -1152
2019-09-17 13:36:45 GMT 51.478210 -0.203934 2,575 270 192 -1152
2019-09-17 13:36:42 GMT 51.478210 -0.199966 2,650 270 193 -1088
2019-09-17 13:36:39 GMT 51.478226 -0.195156 2,775 270 194 -1152
2019-09-17 13:36:36 GMT 51.478226 -0.191667 2,750 270 194 -1088
2019-09-17 13:36:33 GMT 51.478210 -0.187378 2,750 270 194 -1024
2019-09-17 13:36:30 GMT 51.478210 -0.181656 2,850 270 194 -1088
2019-09-17 13:36:27 GMT 51.478226 -0.179641 2,900 270 194 -1088
2019-09-17 13:36:24 GMT 51.478226 -0.174445 2,950 270 194 -960
2019-09-17 13:36:21 GMT 51.478256 -0.170135 3,000 270 194 -1216
2019-09-17 13:36:18 GMT 51.478256 -0.164337 3,050 270 194 -960
2019-09-17 13:36:15 GMT 51.478271 -0.162939 3,175 270 192 -960
2019-09-17 13:36:12 GMT 51.478271 -0.157817 3,125 270 192 -896
2019-09-17 13:36:09 GMT 51.478271 -0.149280 3,325 270 191 -1024
2019-09-17 13:36:03 GMT 51.478302 -0.144501 3,350 270 190 -1024
2019-09-17 13:36:00 GMT 51.478271 -0.140298 3,350 270 191 -1024
2019-09-17 13:35:57 GMT 51.478302 -0.136032 3,400 270 193 -1024
2019-09-17 13:35:54 GMT 51.478302 -0.132599 3,450 270 193 -1152
2019-09-17 13:35:51 GMT 51.478302 -0.128021 3,500 270 194 -1216
2019-09-17 13:35:47 GMT 51.478348 -0.122833 3,625 270 196 -1088
2019-09-17 13:35:44 GMT 51.478317 -0.117955 3,625 270 196 -1088
2019-09-17 13:35:41 GMT 51.478348 -0.108414 4,100 270 196 -1088
2019-09-17 13:35:38 GMT 51.478348 -0.108414 3,800 271 196 -960
2019-09-17 13:35:34 GMT 51.478363 -0.103479 3,875 270 196 -1088
2019-09-17 13:35:31 GMT 51.478363 -0.097615 3,900 271 196 -1024
2019-09-17 13:35:28 GMT 51.478348 -0.093307 3,925 271 195 -1152
2019-09-17 13:35:25 GMT 51.478348 -0.089798 4,025 271 195 -960
2019-09-17 13:35:22 GMT 51.478302 -0.086365 4,050 271 195 -1024
2019-09-17 13:35:19 GMT 51.478302 -0.082321 4,100 271 196 -1152
2019-09-17 13:35:16 GMT 51.478302 -0.075912 4,225 269 195 -1152
2019-09-17 13:35:13 GMT 51.478302 -0.073090 4,225 268 195 -960
2019-09-17 13:35:10 GMT 51.478409 -0.068145 4,325 267 195 -960
2019-09-17 13:35:07 GMT 51.478638 -0.062949 4,325 263 196 -832
2019-09-17 13:35:03 GMT 51.479004 -0.058346 4,425 252 200 -768
2019-09-17 13:35:00 GMT 51.479507 -0.053744 4,475 241 210 -704
2019-09-17 13:34:57 GMT 51.480209 -0.049515 4,475 249 201 -704
2019-09-17 13:34:54 GMT 51.480835 -0.046395 4,500 246 202 -768
2019-09-17 13:34:51 GMT 51.483078 -0.038229 4,650 243 204 -640
2019-09-17 13:34:45 GMT 51.486511 -0.028060 4,625 241 209 -576
2019-09-17 13:34:42 GMT 51.486511 -0.028060 4,650 241 210 -704
2019-09-17 13:34:39 GMT 51.487427 -0.025313 4,650 241 211 -768
2019-09-17 13:34:35 GMT 51.489395 -0.019894 4,825 241 219 -896
2019-09-17 13:34:32 GMT 51.491058 -0.015106 4,750 241 219 -896
2019-09-17 13:34:28 GMT 51.492874 -0.009995 4,875 241 221 -896
2019-09-17 13:34:24 GMT 51.495026 -0.004009 4,875 240 226 -896
2019-09-17 13:34:21 GMT 51.496307 -0.000520 4,900 238 235 -1024
2019-09-17 13:34:18 GMT 51.498276 0.004751 5,025 238 235 -1024
2019-09-17 13:34:15 GMT 51.500290 0.010021 5,025 237 237 -960
2019-09-17 13:34:12 GMT 51.502213 0.014772 5,075 235 241 -1024
2019-09-17 13:34:08 GMT 51.504326 0.019684 5,150 232 243 -1152
2019-09-17 13:34:05 GMT 51.506329 0.023651 5,175 229 245 -1216
2019-09-17 13:34:02 GMT 51.508747 0.027924 5,200 225 247 -1280
2019-09-17 13:33:59 GMT 51.510956 0.031177 5,325 219 250 -1408
2019-09-17 13:33:55 GMT 51.515171 0.036316 5,425 214 252 -1536
2019-09-17 13:33:52 GMT 51.517548 0.038834 5,500 212 255 -1664
2019-09-17 13:33:49 GMT 51.521130 0.042419 5,675 212 256 -1664
2019-09-17 13:33:46 GMT 51.523552 0.044785 5,800 212 258 -1600
2019-09-17 13:33:42 GMT 51.527802 0.049067 5,800 212 258 -1600
2019-09-17 13:33:37 GMT 51.532864 0.054092 5,925 212 258 -1920
2019-09-17 13:33:33 GMT 51.536728 0.057827 6,100 211 256 -2112
2019-09-17 13:33:30 GMT 51.539799 0.060806 6,150 211 256 -2368
2019-09-17 13:33:27 GMT 51.542637 0.063553 6,500 211 254 -2560
2019-09-17 13:33:24 GMT 51.549362 0.069852 6,525 211 255 -2560
2019-09-17 13:33:18 GMT 51.554417 0.074615 6,725 210 254 -2560
2019-09-17 13:33:12 GMT 51.558701 0.078612 6,925 210 254 -2560
2019-09-17 13:33:09 GMT 51.561951 0.081581 7,025 210 253 -2560
2019-09-17 13:33:06 GMT 51.564423 0.083808 7,175 210 252 -2624
2019-09-17 13:33:03 GMT 51.567261 0.086332 7,250 209 253 -2624
2019-09-17 13:33:00 GMT 51.570557 0.089227 7,550 207 253 -2304
2019-09-17 13:32:57 GMT 51.574677 0.092790 7,550 208 252 -2432
2019-09-17 13:32:54 GMT 51.580490 0.097467 7,775 205 253 -2048
2019-09-17 13:32:48 GMT 51.587357 0.102440 7,925 203 255 -1728
2019-09-17 13:32:45 GMT 51.587357 0.102440 7,975 201 256 -1664
2019-09-17 13:32:39 GMT 51.592915 0.105667 8,225 197 258 -1344
2019-09-17 13:32:36 GMT 51.596329 0.107414 8,250 196 258 -1152
2019-09-17 13:32:33 GMT 51.599339 0.108795 8,275 200 258 -1152
2019-09-17 13:32:30 GMT 51.603241 0.110531 8,325 196 258 -1088
2019-09-17 13:32:27 GMT 51.606693 0.112076 8,375 196 258 -1088
2019-09-17 13:32:24 GMT 51.610611 0.113798 8,475 197 258 -1216
2019-09-17 13:32:21 GMT 51.614273 0.115505 8,500 198 259 -1280
2019-09-17 13:32:18 GMT 51.616795 0.116730 8,525 199 258 -1216
2019-09-17 13:32:15 GMT 51.620892 0.118942 8,625 203 257 -1152
2019-09-17 13:32:12 GMT 51.624012 0.120773 8,650 205 257 -1216
2019-09-17 13:32:09 GMT 51.626450 0.122483 8,675 207 257 -1280
2019-09-17 13:32:06 GMT 51.630810 0.126266 8,800 218 254 -1216
2019-09-17 13:32:02 GMT 51.633507 0.129318 8,825 225 251 -1088
2019-09-17 13:31:59 GMT 51.636841 0.134063 8,900 227 250 -1024
2019-09-17 13:31:56 GMT 51.638763 0.137329 8,925 233 249 -832
2019-09-17 13:31:53 GMT 51.641655 0.143585 8,975 255 240 -128
2019-09-17 13:31:50 GMT 51.642818 0.146713 9,000 249 242 -192
2019-09-17 13:31:47 GMT 51.644634 0.152588 9,000 251 241 -128
2019-09-17 13:31:43 GMT 51.646133 0.159747 9,000 260 238 -64
2019-09-17 13:31:39 GMT 51.646866 0.164646 9,000 259 238 -128
2019-09-17 13:31:36 GMT 51.647461 0.170214 9,000 262 237 0
2019-09-17 13:31:33 GMT 51.647873 0.175113 9,000 264 237 0
2019-09-17 13:31:30 GMT 51.648357 0.181808 9,000 264 237 0
2019-09-17 13:31:27 GMT 51.648697 0.186322 9,000 264 237 0
2019-09-17 13:31:24 GMT 51.649197 0.193024 9,000 264 237 0
2019-09-17 13:31:21 GMT 51.649429 0.196533 9,000 264 237 0
2019-09-17 13:31:18 GMT 51.649796 0.201762 9,000 264 237 0
2019-09-17 13:31:15 GMT 51.650314 0.208435 9,000 264 238 0
2019-09-17 13:31:12 GMT 51.650711 0.213714 9,000 264 237 0
2019-09-17 13:31:09 GMT 51.651012 0.217972 9,000 264 237 0
2019-09-17 13:31:06 GMT 51.651443 0.223587 9,000 264 238 0
2019-09-17 13:31:03 GMT 51.651897 0.229568 9,000 264 238 -64
2019-09-17 13:30:59 GMT 51.652363 0.235901 9,000 264 238 0
2019-09-17 13:30:56 GMT 51.652725 0.241180 9,000 264 238 0
2019-09-17 13:30:53 GMT 51.653248 0.247879 9,000 264 240 0
2019-09-17 13:30:50 GMT 51.653526 0.251389 9,000 264 240 0
2019-09-17 13:30:47 GMT 51.653896 0.256348 9,000 264 242 0
2019-09-17 13:30:44 GMT 51.654327 0.262484 9,000 263 248 0
2019-09-17 13:30:38 GMT 51.655853 0.281906 9,000 263 251 0
2019-09-17 13:30:34 GMT 51.655853 0.281906 9,000 264 255 -64
2019-09-17 13:30:31 GMT 51.656223 0.287247 9,000 263 260 -128
2019-09-17 13:30:25 GMT 51.657063 0.297928 9,025 263 268 -448
2019-09-17 13:30:22 GMT 51.657486 0.303831 9,000 264 266 -384
2019-09-17 13:30:19 GMT 51.657948 0.309677 9,025 263 270 -576
2019-09-17 13:30:16 GMT 51.658504 0.316849 9,050 264 272 -768
2019-09-17 13:30:13 GMT 51.658787 0.320892 9,075 264 273 -896
2019-09-17 13:30:10 GMT 51.659389 0.328979 9,175 264 276 -1408
2019-09-17 13:30:07 GMT 51.659763 0.333862 9,300 263 277 -1536
2019-09-17 13:30:03 GMT 51.660416 0.342865 9,300 263 279 -1600
2019-09-17 13:29:59 GMT 51.661488 0.355988 9,400 263 279 -1600
2019-09-17 13:29:56 GMT 51.661488 0.355988 9,500 263 280 -1600
2019-09-17 13:29:53 GMT 51.661972 0.362178 9,550 263 281 -1600
2019-09-17 13:29:50 GMT 51.662510 0.369186 9,725 264 282 -1664
2019-09-17 13:29:47 GMT 51.662884 0.374222 9,750 264 282 -1664
2019-09-17 13:29:44 GMT 51.663391 0.380439 9,825 264 282 -1664
2019-09-17 13:29:41 GMT 51.663940 0.387936 9,875 264 282 -1664
2019-09-17 13:29:38 GMT 51.664417 0.394211 9,950 264 284 -1664
2019-09-17 13:29:35 GMT 51.664764 0.398774 9,975 264 283 -1600
2019-09-17 13:29:32 GMT 51.665676 0.411835 10,150 264 285 -1728
2019-09-17 13:29:29 GMT 51.666275 0.420672 10,275 264 288 -1920
2019-09-17 13:29:26 GMT 51.666275 0.420672 10,325 264 286 -1856
2019-09-17 13:29:23 GMT 51.666607 0.425339 10,550 264 286 -1856
2019-09-17 13:29:20 GMT 51.666981 0.430450 10,675 264 288 -1920
2019-09-17 13:29:17 GMT 51.668049 0.444870 10,625 264 288 -1920
2019-09-17 13:29:14 GMT 51.668049 0.444870 10,625 264 288 -1920
2019-09-17 13:29:11 GMT 51.668427 0.450365 11,225 264 288 -1920
2019-09-17 13:29:08 GMT 51.668980 0.457611 10,800 264 288 -1920
2019-09-17 13:29:05 GMT 51.669399 0.463562 11,000 264 288 -2048
2019-09-17 13:29:02 GMT 51.669891 0.469888 10,975 264 288 -2112
2019-09-17 13:28:59 GMT 51.671074 0.485611 11,225 263 287 -2112
2019-09-17 13:28:55 GMT 51.671074 0.485611 11,325 263 287 -2048
2019-09-17 13:28:52 GMT 51.671585 0.491935 11,375 263 287 -2048
2019-09-17 13:28:49 GMT 51.671997 0.497057 11,475 263 287 -1920
2019-09-17 13:28:46 GMT 51.673218 0.512695 11,675 263 287 -1856
2019-09-17 13:28:42 GMT 51.673218 0.512695 11,675 264 288 -1856
2019-09-17 13:28:39 GMT 51.673828 0.520811 12,100 264 287 -1856
2019-09-17 13:28:35 GMT 51.674377 0.528457 12,000 264 296 -1536
2019-09-17 13:28:32 GMT 51.674789 0.534396 12,000 264 288 -1856
2019-09-17 13:28:29 GMT 51.675312 0.541687 12,425 264 288 -1856
2019-09-17 13:28:25 GMT 51.675751 0.548054 12,425 264 288 -1856
2019-09-17 13:28:22 GMT 51.676712 0.560897 12,800 264 291 -1728
2019-09-17 13:28:16 GMT 51.677361 0.569916 12,475 264 290 -1856
2019-09-17 13:28:13 GMT 51.677685 0.574188 12,675 264 290 -1856
2019-09-17 13:28:10 GMT 51.678200 0.581055 12,650 264 291 -1792
2019-09-17 13:28:07 GMT 51.678616 0.587082 12,825 264 291 -1792
2019-09-17 13:28:03 GMT 51.679138 0.595266 13,600 264 295 -1600
2019-09-17 13:28:00 GMT 51.679550 0.601353 12,900 264 293 -1664
2019-09-17 13:27:57 GMT 51.680008 0.608257 13,025 264 293 -1664
2019-09-17 13:27:54 GMT 51.680527 0.616531 13,050 264 295 -1600
2019-09-17 13:27:50 GMT 51.680969 0.623103 13,200 264 296 -1536
2019-09-17 13:27:47 GMT 51.681473 0.630081 13,275 264 300 -1408
2019-09-17 13:27:44 GMT 51.681885 0.636242 13,325 264 302 -1344
2019-09-17 13:27:41 GMT 51.682343 0.642477 13,425 264 303 -1344
2019-09-17 13:27:38 GMT 51.683029 0.651385 13,475 264 305 -1344
2019-09-17 13:27:35 GMT 51.683506 0.658112 13,550 264 309 -1280
2019-09-17 13:27:32 GMT 51.683926 0.663528 13,775 264 311 -1216
2019-09-17 13:27:29 GMT 51.684296 0.669022 13,625 264 311 -1216
2019-09-17 13:27:26 GMT 51.685089 0.680008 13,725 264 313 -1216
2019-09-17 13:27:22 GMT 51.685501 0.686052 14,100 264 316 -1216
2019-09-17 13:27:19 GMT 51.686005 0.693549 13,850 264 317 -1216
2019-09-17 13:27:16 GMT 51.687057 0.708692 14,075 264 328 -1600
2019-09-17 13:27:10 GMT 51.688019 0.722203 14,025 264 328 -1600
2019-09-17 13:27:04 GMT 51.688568 0.729997 14,325 264 331 -2624
2019-09-17 13:27:01 GMT 51.689697 0.745087 14,500 264 332 -2560
2019-09-17 13:26:58 GMT 51.689697 0.745087 14,425 263 335 -2240
2019-09-17 13:26:54 GMT 51.690300 0.753937 14,650 264 332 -2560
2019-09-17 13:26:50 GMT 51.690994 0.764292 14,675 264 332 -2560
2019-09-17 13:26:47 GMT 51.691978 0.779572 14,975 265 333 -2560
2019-09-17 13:26:43 GMT 51.691978 0.779572 15,100 264 334 -2688
2019-09-17 13:26:40 GMT 51.692677 0.790405 15,200 265 334 -2688
2019-09-17 13:26:37 GMT 51.693146 0.797845 16,200 263 337 -1728
2019-09-17 13:26:34 GMT 51.693607 0.805283 15,450 264 335 -2880
2019-09-17 13:26:27 GMT 51.694611 0.819595 15,725 264 335 -2752
2019-09-17 13:26:24 GMT 51.695236 0.828018 15,875 263 335 -2432
2019-09-17 13:26:20 GMT 51.696121 0.839415 16,550 256 345 -1600
2019-09-17 13:26:17 GMT 51.696678 0.846863 16,125 263 337 -1728
2019-09-17 13:26:13 GMT 51.697472 0.856781 16,275 263 338 -1728
2019-09-17 13:26:10 GMT 51.698044 0.864283 16,800 264 339 -1792
2019-09-17 13:26:07 GMT 51.698502 0.870295 17,125 247 354 -1152
2019-09-17 13:26:04 GMT 51.698959 0.876846 16,500 263 340 -1728
2019-09-17 13:26:01 GMT 51.699657 0.885849 16,650 262 341 -1664
2019-09-17 13:25:58 GMT 51.700424 0.894346 16,675 260 342 -1600
2019-09-17 13:25:54 GMT 51.701431 0.902364 16,800 257 345 -1600
2019-09-17 13:25:51 GMT 51.702988 0.912236 17,100 240 362 -832
2019-09-17 13:25:48 GMT 51.704132 0.918175 17,075 246 353 -1088
2019-09-17 13:25:45 GMT 51.705711 0.925522 17,025 248 352 -1280
2019-09-17 13:25:42 GMT 51.707703 0.933764 17,175 243 358 -832
2019-09-17 13:25:39 GMT 51.709854 0.941410 17,225 243 358 -832
2019-09-17 13:25:36 GMT 51.711639 0.947125 17,225 241 361 -832
2019-09-17 13:25:33 GMT 51.714844 0.956479 17,550 240 362 -832
2019-09-17 13:25:30 GMT 51.716583 0.961081 17,275 238 365 -832
2019-09-17 13:25:27 GMT 51.722672 0.975556 17,475 225 398 -832
2019-09-17 13:25:24 GMT 51.722672 0.975556 18,000 231 374 -768
2019-09-17 13:25:21 GMT 51.724983 0.980377 17,450 224 441 0
2019-09-17 13:25:18 GMT 51.727844 0.985949 17,450 229 378 -832
2019-09-17 13:25:15 GMT 51.736084 0.999830 17,550 225 385 -1024
2019-09-17 13:25:12 GMT 51.739925 1.005859 17,575 225 385 -1024
2019-09-17 13:25:06 GMT 51.743000 1.010666 17,600 225 399 -576
2019-09-17 13:25:02 GMT 51.749702 1.021118 17,725 225 393 -1152
2019-09-17 13:24:59 GMT 51.756180 1.031304 17,800 225 409 64
2019-09-17 13:24:56 GMT 51.756180 1.031304 17,825 225 395 -1152
2019-09-17 13:24:53 GMT 51.761154 1.039047 17,900 225 398 -896
2019-09-17 13:24:50 GMT 51.765152 1.045260 17,975 225 411 -64
2019-09-17 13:24:46 GMT 51.769363 1.051867 19,100 225 425 -2304
2019-09-17 13:24:43 GMT 51.778519 1.066119 17,975 225 410 0
2019-09-17 13:24:37 GMT 51.787548 1.080322 17,975 225 422 -512
2019-09-17 13:24:34 GMT 51.787548 1.080322 17,975 225 422 -512
2019-09-17 13:24:31 GMT 51.791702 1.086904 18,000 225 422 -576
2019-09-17 13:24:28 GMT 51.798115 1.097031 18,025 225 425 -896
2019-09-17 13:24:25 GMT 51.798115 1.097031 18,350 225 429 -1536
2019-09-17 13:24:22 GMT 51.803467 1.105536 19,025 225 428 -1216
2019-09-17 13:24:19 GMT 51.806587 1.110458 18,150 225 429 -1472
2019-09-17 13:24:16 GMT 51.811386 1.118082 18,475 225 432 -2752
2019-09-17 13:24:13 GMT 51.815620 1.124802 18,275 225 428 -1600
2019-09-17 13:24:08 GMT 51.822418 1.135483 18,475 225 427 -1984
2019-09-17 13:24:05 GMT 51.827225 1.143024 18,550 225 425 -2304
2019-09-17 13:24:02 GMT 51.830566 1.148368 18,675 225 425 -2368
2019-09-17 13:23:59 GMT 51.834503 1.154604 18,700 225 425 -2688
2019-09-17 13:23:56 GMT 51.839584 1.162547 18,950 225 426 -2816
2019-09-17 13:23:53 GMT 51.844070 1.169673 19,025 225 426 -2816
2019-09-17 13:23:48 GMT 51.851349 1.181253 19,250 225 426 -2816
2019-09-17 13:23:45 GMT 51.854736 1.186672 19,400 225 427 -2688
2019-09-17 13:23:42 GMT 51.859222 1.193798 19,475 225 449 -2368
2019-09-17 13:23:38 GMT 51.869621 1.210403 19,800 225 429 -2560
2019-09-17 13:23:35 GMT 51.869621 1.210403 20,350 225 429 -2560
2019-09-17 13:23:32 GMT 51.872971 1.215820 19,925 225 429 -2560
2019-09-17 13:23:29 GMT 51.879723 1.226654 20,050 225 433 -2816
2019-09-17 13:23:25 GMT 51.883121 1.232147 20,200 225 432 -2688
2019-09-17 13:23:21 GMT 51.888195 1.240311 20,350 225 432 -2688
2019-09-17 13:23:16 GMT 51.894699 1.250763 20,800 225 433 -2816
2019-09-17 13:23:12 GMT 51.905502 1.268082 20,925 225 434 -2816
2019-09-17 13:23:09 GMT 51.905502 1.268082 21,050 225 435 -2816
2019-09-17 13:23:06 GMT 51.910355 1.275827 21,200 225 437 -2560
2019-09-17 13:23:03 GMT 51.915569 1.284066 21,225 225 436 -2688
2019-09-17 13:23:00 GMT 51.918453 1.288539 22,525 224 448 -3520
2019-09-17 13:22:56 GMT 51.930138 1.306667 21,525 224 440 -2048
2019-09-17 13:22:52 GMT 51.930138 1.306667 21,625 224 441 -1920
2019-09-17 13:22:49 GMT 51.934887 1.313886 24,000 224 448 -2112
2019-09-17 13:22:46 GMT 51.940239 1.321969 22,300 224 448 -2368
2019-09-17 13:22:42 GMT 51.946609 1.331558 22,050 224 447 -2048
2019-09-17 13:22:38 GMT 51.952343 1.340254 22,175 224 449 -2816
2019-09-17 13:22:35 GMT 51.955673 1.345291 22,175 224 449 -3328
2019-09-17 13:22:31 GMT 51.966263 1.361441 22,575 224 449 -3520
2019-09-17 13:22:25 GMT 51.976730 1.377640 24,000 224 448 -3328
2019-09-17 13:22:21 GMT 51.976730 1.377640 22,950 224 448 -3328
2019-09-17 13:22:18 GMT 51.980602 1.383650 23,100 224 448 -3328
2019-09-17 13:22:15 GMT 51.985703 1.391602 23,250 225 447 -3200
2019-09-17 13:22:12 GMT 51.990463 1.399078 24,000 225 451 -1600
2019-09-17 13:22:09 GMT 51.993729 1.404131 23,550 225 449 -2688
2019-09-17 13:22:06 GMT 51.998199 1.411133 23,650 225 455 -960
2019-09-17 13:22:03 GMT 52.002960 1.418686 23,775 224 470 -1280
2019-09-17 13:22:00 GMT 52.009277 1.428537 24,000 225 463 -448
2019-09-17 13:21:57 GMT 52.012302 1.433323 23,950 225 462 -320
2019-09-17 13:21:54 GMT 52.017097 1.440935 23,975 225 459 -384
2019-09-17 13:21:51 GMT 52.021683 1.448059 23,975 225 462 -320
2019-09-17 13:21:48 GMT 52.025665 1.454354 24,000 225 463 -448
2019-09-17 13:21:45 GMT 52.037395 1.472796 24,050 224 468 -1088
2019-09-17 13:21:41 GMT 52.037395 1.472796 24,075 224 468 -896
2019-09-17 13:21:38 GMT 52.042053 1.480026 24,275 224 468 -1152
2019-09-17 13:21:33 GMT 52.049515 1.491699 24,500 224 470 -1280
2019-09-17 13:21:30 GMT 52.053268 1.497498 24,275 224 468 -1344
2019-09-17 13:21:27 GMT 52.058945 1.506271 24,325 224 468 -1280
2019-09-17 13:21:23 GMT 52.065216 1.515961 24,425 224 468 -1344
2019-09-17 13:21:19 GMT 52.076218 1.532907 24,625 224 468 -1216
2019-09-17 13:21:13 GMT 52.081852 1.541617 25,775 224 470 -1344
2019-09-17 13:21:09 GMT 52.087532 1.550328 24,800 224 471 -1280
2019-09-17 13:21:06 GMT 52.092224 1.557617 24,725 224 470 -1280
2019-09-17 13:21:02 GMT 52.101357 1.571673 24,900 224 470 -1344
2019-09-17 13:20:58 GMT 52.104523 1.576538 24,925 224 470 -1344
2019-09-17 13:20:55 GMT 52.108295 1.582424 25,050 224 471 -1280
2019-09-17 13:20:52 GMT 52.118683 1.598434 25,125 224 471 -1280
2019-09-17 13:20:49 GMT 52.118683 1.598434 25,100 224 471 -1280
2019-09-17 13:20:46 GMT 52.124359 1.607208 25,200 224 471 -1280
2019-09-17 13:20:43 GMT 52.128159 1.613083 25,250 224 472 -1216
2019-09-17 13:20:40 GMT 52.138870 1.629715 25,375 224 472 -1152
2019-09-17 13:20:37 GMT 52.138870 1.629715 25,450 224 472 -1152
2019-09-17 13:20:29 GMT 52.153427 1.652298 25,550 224 473 -1216
2019-09-17 13:20:25 GMT 52.158508 1.660156 25,625 224 474 -1280
2019-09-17 13:20:22 GMT 52.161667 1.665039 25,700 224 474 -1280
2019-09-17 13:20:19 GMT 52.166748 1.672897 25,725 224 474 -1216
2019-09-17 13:20:16 GMT 52.170860 1.679339 25,750 224 477 -1024
2019-09-17 13:20:13 GMT 52.174988 1.685715 25,875 224 476 -1088
2019-09-17 13:20:10 GMT 52.180359 1.694170 26,050 224 476 -1024
2019-09-17 13:20:07 GMT 52.186085 1.703038 26,050 224 478 -1088
2019-09-17 13:20:03 GMT 52.191158 1.710964 26,350 224 478 -1216
2019-09-17 13:20:00 GMT 52.197876 1.721344 26,350 224 478 -1216
2019-09-17 13:19:57 GMT 52.205868 1.733721 26,300 224 478 -1152
2019-09-17 13:19:51 GMT 52.211334 1.742172 26,525 224 481 -1472
2019-09-17 13:19:48 GMT 52.214249 1.746669 26,375 224 480 -1408
2019-09-17 13:19:45 GMT 52.225479 1.764069 26,425 224 480 -1408
2019-09-17 13:19:42 GMT 52.229965 1.771088 26,700 224 480 -1408
2019-09-17 13:19:39 GMT 52.229965 1.771088 26,550 224 480 -1344
2019-09-17 13:19:36 GMT 52.239578 1.786041 26,700 224 480 -1344
2019-09-17 13:19:33 GMT 52.239578 1.786041 26,650 224 480 -1344
2019-09-17 13:19:30 GMT 52.244751 1.794052 26,700 224 481 -1536
2019-09-17 13:19:27 GMT 52.249237 1.800995 26,750 224 480 -1408
2019-09-17 13:19:24 GMT 52.255352 1.810468 26,925 224 481 -1536
2019-09-17 13:19:21 GMT 52.258896 1.816025 27,050 224 481 -1600
2019-09-17 13:19:17 GMT 52.270111 1.833540 27,100 225 481 -1344
2019-09-17 13:19:14 GMT 52.275558 1.842117 28,350 228 479 -2112
2019-09-17 13:19:11 GMT 52.275558 1.842117 27,175 225 481 -1472
2019-09-17 13:19:08 GMT 52.281326 1.851120 27,275 225 480 -1408
2019-09-17 13:19:05 GMT 52.283890 1.855164 27,325 225 481 -1344
2019-09-17 13:19:02 GMT 52.288971 1.863327 27,375 225 481 -1280
2019-09-17 13:18:58 GMT 52.300323 1.881714 27,525 226 481 -1600
2019-09-17 13:18:55 GMT 52.305580 1.890512 27,625 227 480 -1792
2019-09-17 13:18:52 GMT 52.305580 1.890512 27,650 228 481 -1920
2019-09-17 13:18:49 GMT 52.309261 1.896868 27,825 228 477 -1920
2019-09-17 13:18:46 GMT 52.316208 1.909027 27,825 228 479 -2112
2019-09-17 13:18:40 GMT 52.322479 1.920175 28,025 228 477 -1920
2019-09-17 13:18:37 GMT 52.327606 1.929169 28,125 228 481 -1728
2019-09-17 13:18:33 GMT 52.333885 1.940342 28,300 228 478 -1024
2019-09-17 13:18:30 GMT 52.337471 1.946699 28,300 228 478 -1024
2019-09-17 13:18:27 GMT 52.344032 1.958391 28,350 228 479 -960
2019-09-17 13:18:24 GMT 52.347061 1.963649 28,450 228 481 -1152
2019-09-17 13:18:21 GMT 52.359329 1.985626 28,600 228 482 -1472
2019-09-17 13:18:17 GMT 52.359329 1.985626 28,525 228 481 -1920
2019-09-17 13:18:13 GMT 52.363541 1.993103 29,300 228 476 -2240
2019-09-17 13:18:09 GMT 52.369823 2.004377 28,800 228 481 -1920
2019-09-17 13:18:06 GMT 52.374298 2.012405 29,975 228 474 -448
2019-09-17 13:18:02 GMT 52.380249 2.023163 30,025 228 479 -2304
2019-09-17 13:17:59 GMT 52.387436 2.036057 29,100 228 479 -2304
2019-09-17 13:17:55 GMT 52.389816 2.040329 29,275 228 479 -2304
2019-09-17 13:17:51 GMT 52.396912 2.053146 29,350 228 476 -2240
2019-09-17 13:17:47 GMT 52.407860 2.072806 29,800 228 474 -1856
2019-09-17 13:17:43 GMT 52.407860 2.072806 30,000 228 474 -1280
2019-09-17 13:17:39 GMT 52.414078 2.083969 29,725 228 474 -1152
2019-09-17 13:17:36 GMT 52.422913 2.099838 29,900 228 474 -576
2019-09-17 13:17:33 GMT 52.422913 2.099838 29,925 228 474 -640
2019-09-17 13:17:30 GMT 52.427364 2.107727 30,000 218 472 -320
2019-09-17 13:17:24 GMT 52.435410 2.121887 30,000 227 474 -64
2019-09-17 13:17:21 GMT 52.439621 2.129288 30,000 227 475 64
2019-09-17 13:17:18 GMT 52.449615 2.146415 29,975 224 476 64
2019-09-17 13:17:15 GMT 52.449615 2.146415 30,000 225 475 128
2019-09-17 13:17:12 GMT 52.455761 2.156616 29,975 224 476 128
2019-09-17 13:17:08 GMT 52.460091 2.163757 30,000 224 475 128
2019-09-17 13:17:05 GMT 52.466034 2.173309 30,000 224 475 128
2019-09-17 13:17:02 GMT 52.470474 2.180252 30,000 224 475 128
2019-09-17 13:16:59 GMT 52.475266 2.187692 30,000 222 474 128
2019-09-17 13:16:55 GMT 52.485554 2.203387 29,975 223 474 128
2019-09-17 13:16:52 GMT 52.492069 2.212960 29,975 222 475 128
2019-09-17 13:16:49 GMT 52.492069 2.212960 29,975 222 474 128
2019-09-17 13:16:42 GMT 52.502289 2.227631 29,975 221 474 128
2019-09-17 13:16:39 GMT 52.513641 2.243423 29,975 215 485 -1920
2019-09-17 13:16:36 GMT 52.513641 2.243423 29,975 219 472 0
2019-09-17 13:16:33 GMT 52.518047 2.249294 29,975 219 473 0
2019-09-17 13:16:30 GMT 52.527592 2.261928 29,975 218 472 -320
2019-09-17 13:16:27 GMT 52.527592 2.261928 30,200 216 476 -768
2019-09-17 13:16:24 GMT 52.533417 2.269363 29,975 218 472 -128
2019-09-17 13:16:21 GMT 52.537876 2.275112 30,000 216 477 -896
2019-09-17 13:16:18 GMT 52.549049 2.288845 30,000 216 480 -1152
2019-09-17 13:16:15 GMT 52.553986 2.294809 30,050 217 476 -704
2019-09-17 13:16:09 GMT 52.560745 2.302780 30,075 216 479 -1088
2019-09-17 13:16:06 GMT 52.572701 2.316624 30,200 215 483 -1600
2019-09-17 13:16:02 GMT 52.578186 2.322769 30,250 215 482 -1536
2019-09-17 13:15:58 GMT 52.578186 2.322769 30,425 215 486 -2304
2019-09-17 13:15:54 GMT 52.585964 2.331456 32,375 210 492 -3008
2019-09-17 13:15:50 GMT 52.594112 2.340480 30,550 215 486 -2240
2019-09-17 13:15:46 GMT 52.600819 2.347935 31,075 209 493 -3136
2019-09-17 13:15:43 GMT 52.606384 2.354202 31,075 212 490 -2816
2019-09-17 13:15:40 GMT 52.612736 2.361197 31,050 212 490 -2816
2019-09-17 13:15:37 GMT 52.619247 2.367935 31,100 210 492 -3008
2019-09-17 13:15:33 GMT 52.627945 2.376022 31,325 209 493 -3264
2019-09-17 13:15:28 GMT 52.635178 2.382431 31,625 209 493 -3520
2019-09-17 13:15:24 GMT 52.647995 2.393799 31,825 209 492 -3648
2019-09-17 13:15:20 GMT 52.653580 2.398758 32,375 209 491 -3456
2019-09-17 13:15:17 GMT 52.657982 2.402631 32,200 209 491 -3200
2019-09-17 13:15:14 GMT 52.663193 2.407227 32,525 209 491 -3136
2019-09-17 13:15:11 GMT 52.669556 2.412949 32,525 209 491 -3136
2019-09-17 13:15:08 GMT 52.675964 2.418594 32,675 209 491 -3136
2019-09-17 13:15:05 GMT 52.684753 2.426300 33,325 208 490 -2816
2019-09-17 13:15:02 GMT 52.694366 2.434692 33,350 208 491 -2560
2019-09-17 13:14:59 GMT 52.694366 2.434692 33,175 208 490 -2624
2019-09-17 13:14:56 GMT 52.700394 2.439907 33,275 208 491 -2112
2019-09-17 13:14:53 GMT 52.712402 2.450422 33,500 208 491 -1856
2019-09-17 13:14:50 GMT 52.712402 2.450422 33,650 208 492 -1280
2019-09-17 13:14:47 GMT 52.726879 2.462978 35,000 208 489 0
2019-09-17 13:14:43 GMT 52.726879 2.462978 33,700 208 492 -1344
2019-09-17 13:14:40 GMT 52.733303 2.468549 34,475 208 492 -1472
2019-09-17 13:14:37 GMT 52.740967 2.475281 33,875 208 492 -1472
2019-09-17 13:14:34 GMT 52.743778 2.477652 34,150 208 490 -1536
2019-09-17 13:14:31 GMT 52.749367 2.482596 34,125 208 490 -1536
2019-09-17 13:14:27 GMT 52.758591 2.490616 34,200 208 490 -1536
2019-09-17 13:14:24 GMT 52.763397 2.494812 34,275 208 489 -1600
2019-09-17 13:14:21 GMT 52.769428 2.500017 34,375 208 488 -1536
2019-09-17 13:14:16 GMT 52.781021 2.510147 35,000 208 487 -1280
2019-09-17 13:14:13 GMT 52.788609 2.516732 34,600 208 488 -1536
2019-09-17 13:14:06 GMT 52.802200 2.528425 34,650 208 487 -1280
2019-09-17 13:14:03 GMT 52.807789 2.533212 34,775 208 487 -1088
2019-09-17 13:14:00 GMT 52.811745 2.536665 34,850 208 487 -896
2019-09-17 13:13:57 GMT 52.817329 2.541452 35,000 208 489 -64
2019-09-17 13:13:54 GMT 52.826523 2.549362 34,850 208 490 0
2019-09-17 13:13:51 GMT 52.832508 2.554478 34,925 208 490 64
2019-09-17 13:13:47 GMT 52.839294 2.560349 34,950 208 488 -384
2019-09-17 13:13:44 GMT 52.845310 2.565465 34,975 208 489 -128
2019-09-17 13:13:41 GMT 52.849312 2.568917 35,000 208 489 -128
2019-09-17 13:13:35 GMT 52.862114 2.579982 35,000 208 490 0
2019-09-17 13:13:32 GMT 52.868538 2.585475 35,000 208 489 64
2019-09-17 13:13:29 GMT 52.875366 2.591400 35,000 208 490 0
2019-09-17 13:13:26 GMT 52.880596 2.595834 35,000 208 489 64
2019-09-17 13:13:23 GMT 52.887020 2.601406 35,000 208 489 64
2019-09-17 13:13:20 GMT 52.893036 2.606506 35,000 208 489 64
2019-09-17 13:13:16 GMT 52.901093 2.613373 35,000 208 490 0
2019-09-17 13:13:13 GMT 52.907921 2.619219 35,000 208 490 0
2019-09-17 13:13:10 GMT 52.913132 2.623672 35,000 208 490 0
2019-09-17 13:13:06 GMT 52.930405 2.638367 35,000 208 489 0
2019-09-17 13:13:01 GMT 52.930405 2.638367 35,000 208 489 0
2019-09-17 13:12:58 GMT 52.944489 2.650375 35,000 208 489 0
2019-09-17 13:12:54 GMT 52.944489 2.650375 35,000 211 479 64
2019-09-17 13:12:51 GMT 52.952099 2.656808 35,000 208 489 64
2019-09-17 13:12:47 GMT 52.957733 2.661595 35,000 208 489 0
2019-09-17 13:12:43 GMT 52.966965 2.669525 35,000 208 489 0
2019-09-17 13:12:39 GMT 52.975422 2.676662 35,000 208 490 0
2019-09-17 13:12:36 GMT 52.980652 2.681122 35,000 208 489 0
2019-09-17 13:12:33 GMT 52.989109 2.688276 35,000 208 489 64
2019-09-17 13:12:30 GMT 52.993111 2.691650 35,000 207 493 0
2019-09-17 13:12:27 GMT 52.999191 2.696762 35,000 208 490 64
2019-09-17 13:12:24 GMT 53.005600 2.702255 35,000 208 490 64
2019-09-17 13:12:21 GMT 53.011688 2.707345 35,000 208 491 64
2019-09-17 13:12:18 GMT 53.018509 2.713165 35,000 207 491 64
2019-09-17 13:12:15 GMT 53.032242 2.724838 35,000 207 491 64
2019-09-17 13:12:11 GMT 53.032242 2.724838 35,000 207 492 64
2019-09-17 13:12:08 GMT 53.036686 2.728533 35,000 207 492 64
2019-09-17 13:12:05 GMT 53.043945 2.734732 35,000 207 492 64
2019-09-17 13:11:59 GMT 53.056145 2.744934 35,000 207 492 64
2019-09-17 13:11:56 GMT 53.061401 2.749329 35,000 207 493 64
2019-09-17 13:11:53 GMT 53.067902 2.754822 35,000 207 493 64
2019-09-17 13:11:50 GMT 53.076443 2.761884 35,000 207 493 0
2019-09-17 13:11:47 GMT 53.080948 2.765656 35,000 207 493 0
2019-09-17 13:11:44 GMT 53.086624 2.770386 35,000 207 493 0
2019-09-17 13:11:41 GMT 53.098846 2.780561 35,000 207 493 0
2019-09-17 13:11:38 GMT 53.098846 2.780561 35,000 207 493 0
2019-09-17 13:11:35 GMT 53.110657 2.790366 35,000 207 491 0
2019-09-17 13:11:29 GMT 53.115921 2.794765 35,000 207 492 64
2019-09-17 13:11:26 GMT 53.128578 2.805230 35,000 207 493 0
2019-09-17 13:11:20 GMT 53.135468 2.811009 35,000 207 493 64
2019-09-17 13:11:17 GMT 53.140778 2.815327 35,000 207 493 0
2019-09-17 13:11:14 GMT 53.160782 2.831805 35,000 207 491 0
2019-09-17 13:11:07 GMT 53.160782 2.831805 35,000 207 493 0
2019-09-17 13:11:04 GMT 53.167683 2.837542 35,000 207 492 0
2019-09-17 13:11:01 GMT 53.179928 2.847559 35,000 207 492 0
2019-09-17 13:10:58 GMT 53.179928 2.847559 35,000 207 492 0
2019-09-17 13:10:55 GMT 53.185654 2.852325 35,000 207 491 0
2019-09-17 13:10:52 GMT 53.192963 2.858303 35,000 206 490 64
2019-09-17 13:10:46 GMT 53.205997 2.869128 35,000 207 491 0
2019-09-17 13:10:43 GMT 53.215347 2.876848 35,000 207 491 64
2019-09-17 13:10:35 GMT 53.228348 2.887599 35,000 207 491 0
2019-09-17 13:10:29 GMT 53.245377 2.901803 35,000 207 491 0
2019-09-17 13:10:26 GMT 53.245377 2.901803 35,000 207 491 64
2019-09-17 13:10:23 GMT 53.250275 2.905805 35,000 207 491 64
2019-09-17 13:10:20 GMT 53.256775 2.911220 35,000 207 491 64
2019-09-17 13:10:17 GMT 53.262451 2.915850 35,000 207 491 64
2019-09-17 13:10:14 GMT 53.274673 2.925895 35,000 207 491 64
2019-09-17 13:10:11 GMT 53.274673 2.925895 35,000 207 491 64
2019-09-17 13:10:06 GMT 53.286438 2.935531 35,000 207 487 0
2019-09-17 13:10:03 GMT 53.291748 2.939863 35,000 207 487 0
2019-09-17 13:10:00 GMT 53.299072 2.945827 35,000 206 490 64
2019-09-17 13:09:54 GMT 53.310516 2.955087 35,000 207 489 0
2019-09-17 13:09:51 GMT 53.316605 2.960088 35,000 207 490 0
2019-09-17 13:09:48 GMT 53.321491 2.964047 35,000 207 490 0
2019-09-17 13:09:45 GMT 53.328369 2.969761 35,000 207 489 0
2019-09-17 13:09:42 GMT 53.334869 2.975098 35,000 208 487 64
2019-09-17 13:09:39 GMT 53.342972 2.981846 35,000 207 489 0
2019-09-17 13:09:34 GMT 53.353008 2.990301 35,000 209 486 0
2019-09-17 13:09:29 GMT 53.361759 2.997975 35,000 209 485 0
2019-09-17 13:09:26 GMT 53.365715 3.001529 35,000 210 483 0
2019-09-17 13:09:23 GMT 53.373138 3.008449 35,000 211 481 0
2019-09-17 13:09:19 GMT 53.381962 3.017120 35,000 211 481 0
2019-09-17 13:09:16 GMT 53.386574 3.021644 35,000 211 481 0
2019-09-17 13:09:12 GMT 53.393829 3.028852 35,000 211 480 0
2019-09-17 13:09:08 GMT 53.401096 3.036104 35,000 211 480 64
2019-09-17 13:09:03 GMT 53.416367 3.051291 35,000 211 480 0
2019-09-17 13:09:00 GMT 53.416367 3.051291 35,000 211 480 0
2019-09-17 13:08:57 GMT 53.421295 3.056240 35,000 211 479 64
2019-09-17 13:08:53 GMT 53.428894 3.063851 35,000 211 479 0
2019-09-17 13:08:50 GMT 53.435406 3.070275 35,000 211 479 64
2019-09-17 13:08:47 GMT 53.439968 3.074879 35,000 211 479 64
2019-09-17 13:08:44 GMT 53.447159 3.082136 35,000 211 479 64
2019-09-17 13:08:40 GMT 53.454025 3.088963 35,000 211 479 64
2019-09-17 13:08:37 GMT 53.459705 3.094671 35,000 211 477 0
2019-09-17 13:08:30 GMT 53.473392 3.108323 35,000 211 478 64
2019-09-17 13:08:27 GMT 53.480186 3.115189 35,000 211 478 64
2019-09-17 13:08:22 GMT 53.497238 3.132281 35,000 211 478 0
2019-09-17 13:08:17 GMT 53.504059 3.139108 35,000 211 477 0
2019-09-17 13:08:11 GMT 53.509750 3.144836 35,000 211 477 0
2019-09-17 13:08:08 GMT 53.514313 3.149360 35,000 211 476 64
2019-09-17 13:08:04 GMT 53.522278 3.157235 35,000 211 477 0
2019-09-17 13:08:01 GMT 53.530231 3.165113 35,000 211 476 64
2019-09-17 13:07:57 GMT 53.535538 3.170363 35,000 211 476 0
2019-09-17 13:07:54 GMT 53.542007 3.176775 35,000 211 476 0
2019-09-17 13:07:50 GMT 53.549179 3.183854 35,000 211 475 0
2019-09-17 13:07:47 GMT 53.553741 3.188297 35,000 211 475 64
2019-09-17 13:07:44 GMT 53.560539 3.195002 35,000 211 475 0
2019-09-17 13:07:39 GMT 53.569244 3.203613 35,000 211 475 64
2019-09-17 13:07:34 GMT 53.581673 3.215924 35,000 211 474 0
2019-09-17 13:07:30 GMT 53.587372 3.221505 35,000 211 475 64
2019-09-17 13:07:27 GMT 53.593033 3.227072 35,000 211 475 64
2019-09-17 13:07:21 GMT 53.603989 3.237828 35,000 211 475 64
2019-09-17 13:07:18 GMT 53.608521 3.242301 35,000 211 475 64
2019-09-17 13:07:14 GMT 53.617237 3.250903 35,000 211 475 0
2019-09-17 13:07:07 GMT 53.631577 3.265040 35,000 211 475 0
2019-09-17 13:06:58 GMT 53.646706 3.279984 35,000 211 475 0
2019-09-17 13:06:55 GMT 53.653503 3.286689 35,000 211 476 64
2019-09-17 13:06:50 GMT 53.662949 3.296055 35,000 211 475 0
2019-09-17 13:06:45 GMT 53.671658 3.304623 35,000 211 476 64
2019-09-17 13:06:42 GMT 53.677322 3.310259 35,000 211 476 64
2019-09-17 13:06:38 GMT 53.690605 3.323364 35,000 211 476 64
2019-09-17 13:06:35 GMT 53.690605 3.323364 35,000 216 470 0
2019-09-17 13:06:32 GMT 53.698563 3.331212 35,000 215 472 -448
2019-09-17 13:06:29 GMT 53.702709 3.335401 35,000 211 476 64
2019-09-17 13:06:26 GMT 53.709183 3.341806 35,000 211 477 64
2019-09-17 13:06:22 GMT 53.715958 3.348633 35,000 211 476 64
2019-09-17 13:06:18 GMT 53.722401 3.355112 35,000 214 473 0
2019-09-17 13:06:13 GMT 53.733620 3.366744 35,000 214 473 0
2019-09-17 13:06:09 GMT 53.739166 3.372646 35,000 214 473 0
2019-09-17 13:06:06 GMT 53.747585 3.381931 35,000 215 472 0
2019-09-17 13:06:02 GMT 53.752258 3.387242 35,000 215 473 -192
2019-09-17 13:05:58 GMT 53.760132 3.396502 35,000 220 454 -1984
2019-09-17 13:05:55 GMT 53.764717 3.401965 35,000 216 470 0
2019-09-17 13:05:50 GMT 53.773590 3.412510 35,000 216 470 0
2019-09-17 13:05:47 GMT 53.778580 3.418396 35,000 216 470 0
2019-09-17 13:05:44 GMT 53.786407 3.427656 35,000 215 471 0
2019-09-17 13:05:37 GMT 53.807053 3.452061 35,975 216 470 0
2019-09-17 13:05:31 GMT 53.816299 3.462969 35,000 216 470 64
2019-09-17 13:05:27 GMT 53.816299 3.462969 35,000 216 470 64
2019-09-17 13:05:23 GMT 53.821602 3.469337 35,000 216 470 64
2019-09-17 13:05:20 GMT 53.826920 3.475682 35,000 216 470 128
2019-09-17 13:05:17 GMT 53.832962 3.482828 35,000 216 471 128
2019-09-17 13:05:13 GMT 53.840424 3.491690 34,975 216 471 128
2019-09-17 13:05:08 GMT 53.850742 3.503992 34,975 219 456 -2112
2019-09-17 13:05:02 GMT 53.859310 3.514252 34,975 215 473 -192
2019-09-17 13:04:58 GMT 53.866432 3.522734 34,975 215 472 -256
2019-09-17 13:04:54 GMT 53.872856 3.530327 35,000 215 473 -192
2019-09-17 13:04:51 GMT 53.879326 3.537921 35,000 220 453 -1920
2019-09-17 13:04:47 GMT 53.888260 3.548427 35,275 215 471 -832
2019-09-17 13:04:44 GMT 53.891830 3.552665 35,150 215 469 -1088
2019-09-17 13:04:38 GMT 53.902542 3.565220 35,200 215 469 -1088
2019-09-17 13:04:35 GMT 53.907166 3.570718 35,250 216 468 -1280
2019-09-17 13:04:31 GMT 53.921631 3.587978 35,400 216 465 -1856
2019-09-17 13:04:27 GMT 53.921631 3.587978 36,375 220 453 -1920
2019-09-17 13:04:24 GMT 53.925842 3.593000 35,450 217 464 -2048
2019-09-17 13:04:20 GMT 53.939285 3.609817 35,825 220 454 -2048
2019-09-17 13:04:14 GMT 53.942963 3.614580 36,200 220 452 -1856
2019-09-17 13:04:08 GMT 53.953537 3.628863 36,075 220 454 -1984
2019-09-17 13:04:05 GMT 53.959724 3.637444 36,150 220 453 -1920
2019-09-17 13:03:59 GMT 53.967773 3.648717 36,375 220 451 -1792
2019-09-17 13:03:56 GMT 53.973587 3.656799 36,425 220 451 -1728
2019-09-17 13:03:53 GMT 53.985512 3.673311 36,800 220 450 -1600
2019-09-17 13:03:49 GMT 53.985512 3.673311 36,675 220 450 -1408
2019-09-17 13:03:45 GMT 53.991333 3.681309 36,700 220 449 -1280
2019-09-17 13:03:40 GMT 54.004833 3.700050 36,900 220 451 0
2019-09-17 13:03:36 GMT 54.004833 3.700050 36,925 220 450 -512
2019-09-17 13:03:31 GMT 54.012562 3.710713 36,950 220 452 64
2019-09-17 13:03:28 GMT 54.018723 3.719186 37,000 220 451 0
2019-09-17 13:03:25 GMT 54.022243 3.724123 37,000 219 452 64
2019-09-17 13:03:22 GMT 54.027409 3.731232 37,000 220 451 0
2019-09-17 13:03:16 GMT 54.036804 3.744219 37,000 220 452 0
2019-09-17 13:03:11 GMT 54.045181 3.755833 37,000 219 452 64
2019-09-17 13:03:07 GMT 54.053604 3.767447 37,000 219 452 64
2019-09-17 13:03:02 GMT 54.060413 3.776793 37,000 219 453 64
2019-09-17 13:02:54 GMT 54.078617 3.801835 37,000 219 453 64
2019-09-17 13:02:51 GMT 54.078617 3.801835 37,000 219 452 64
2019-09-17 13:02:48 GMT 54.082855 3.807626 37,000 219 453 64
2019-09-17 13:02:45 GMT 54.088028 3.814767 37,000 219 453 64
2019-09-17 13:02:39 GMT 54.097469 3.827766 37,000 219 453 64
2019-09-17 13:02:35 GMT 54.103638 3.836269 37,000 219 453 64
2019-09-17 13:02:31 GMT 54.112747 3.848746 37,000 219 453 64
2019-09-17 13:02:28 GMT 54.115719 3.852808 37,000 219 453 64
2019-09-17 13:02:21 GMT 54.125793 3.866638 37,000 219 453 0
2019-09-17 13:02:17 GMT 54.135223 3.879628 37,000 219 452 64
2019-09-17 13:02:14 GMT 54.138153 3.883667 37,000 219 452 0
2019-09-17 13:02:06 GMT 54.151470 3.902004 37,000 219 452 64
2019-09-17 13:02:03 GMT 54.156326 3.908700 37,000 219 452 64
2019-09-17 13:01:56 GMT 54.167999 3.924866 37,000 219 453 64
2019-09-17 13:01:53 GMT 54.171890 3.930202 37,000 219 452 64
2019-09-17 13:01:49 GMT 54.178055 3.938679 37,000 219 453 64
2019-09-17 13:01:46 GMT 54.182922 3.945426 37,000 219 452 64
2019-09-17 13:01:42 GMT 54.189468 3.954372 37,000 219 453 64
2019-09-17 13:01:35 GMT 54.201828 3.971322 37,000 219 452 0
2019-09-17 13:01:32 GMT 54.206078 3.977132 37,000 219 453 0
2019-09-17 13:01:29 GMT 54.213245 3.986906 37,000 219 452 64
2019-09-17 13:01:25 GMT 54.217484 3.992746 37,000 219 452 0
2019-09-17 13:01:21 GMT 54.224327 4.002093 37,000 219 452 64
2019-09-17 13:01:18 GMT 54.229202 4.008833 37,000 219 451 64
2019-09-17 13:01:15 GMT 54.234055 4.015503 37,000 219 451 0
2019-09-17 13:01:11 GMT 54.242844 4.027509 37,000 219 451 64
2019-09-17 13:01:08 GMT 54.246094 4.031982 37,000 219 452 64
2019-09-17 13:01:05 GMT 54.258774 4.049351 37,000 219 450 64
2019-09-17 13:01:01 GMT 54.263672 4.055995 37,000 219 450 64
2019-09-17 13:00:57 GMT 54.268505 4.062680 37,000 219 450 0
2019-09-17 13:00:54 GMT 54.268505 4.062680 37,000 219 450 64
2019-09-17 13:00:51 GMT 54.274063 4.070278 37,000 219 450 64
2019-09-17 13:00:47 GMT 54.281799 4.080936 37,000 208 469 64
2019-09-17 13:00:42 GMT 54.289265 4.091242 37,000 219 450 0
2019-09-17 13:00:35 GMT 54.299927 4.105979 37,000 219 450 64
2019-09-17 13:00:32 GMT 54.303131 4.110422 37,000 219 451 64
2019-09-17 13:00:27 GMT 54.312195 4.122943 37,000 219 451 64
2019-09-17 13:00:24 GMT 54.316086 4.128194 37,000 219 451 64
2019-09-17 13:00:17 GMT 54.332565 4.150166 37,000 217 454 128
2019-09-17 13:00:14 GMT 54.332565 4.150166 37,000 217 455 128
2019-09-17 13:00:10 GMT 54.338940 4.158242 37,000 213 461 64
2019-09-17 13:00:07 GMT 54.346161 4.166969 37,000 208 472 64
2019-09-17 13:00:03 GMT 54.351460 4.172974 37,000 208 469 64
2019-09-17 12:59:58 GMT 54.373398 4.194839 37,000 210 467 64
2019-09-17 12:59:52 GMT 54.373398 4.194839 37,000 209 469 64
2019-09-17 12:59:49 GMT 54.386791 4.207015 37,000 208 470 0
2019-09-17 12:59:45 GMT 54.386791 4.207015 37,000 208 470 0
2019-09-17 12:59:42 GMT 54.391800 4.211480 37,000 208 470 64
2019-09-17 12:59:39 GMT 54.397156 4.216327 37,000 208 470 0
2019-09-17 12:59:34 GMT 54.412537 4.230140 37,000 208 470 64
2019-09-17 12:59:31 GMT 54.421383 4.238143 37,000 208 470 64
2019-09-17 12:59:27 GMT 54.421383 4.238143 37,000 208 471 64
2019-09-17 12:59:23 GMT 54.429062 4.245051 37,000 208 471 64
2019-09-17 12:59:17 GMT 54.439407 4.254456 37,000 208 471 64
2019-09-17 12:59:11 GMT 54.451363 4.265192 37,000 208 471 0
2019-09-17 12:59:07 GMT 54.459042 4.272184 37,000 208 471 64
2019-09-17 12:59:00 GMT 54.472870 4.284751 37,000 208 472 64
2019-09-17 12:58:57 GMT 54.478638 4.289919 37,000 208 471 0
2019-09-17 12:58:53 GMT 54.485550 4.296220 37,000 208 471 64
2019-09-17 12:58:50 GMT 54.491348 4.301480 37,000 208 471 64
2019-09-17 12:58:45 GMT 54.501358 4.310552 37,000 208 471 64
2019-09-17 12:58:41 GMT 54.509041 4.317544 37,000 208 472 64
2019-09-17 12:58:38 GMT 54.515625 4.323443 37,000 208 472 64
2019-09-17 12:58:32 GMT 54.526775 4.333524 37,000 208 472 64
2019-09-17 12:58:29 GMT 54.531784 4.338065 37,000 208 472 64
2019-09-17 12:58:25 GMT 54.539906 4.345426 37,000 208 472 64
2019-09-17 12:58:19 GMT 54.551926 4.356160 37,000 208 472 64
2019-09-17 12:58:16 GMT 54.557281 4.361007 37,000 210 469 64
2019-09-17 12:58:12 GMT 54.565323 4.368480 37,000 210 467 64
2019-09-17 12:58:09 GMT 54.572956 4.375638 37,000 210 469 64
2019-09-17 12:58:06 GMT 54.576725 4.379300 37,000 212 464 0
2019-09-17 12:58:01 GMT 54.586502 4.388872 37,000 211 467 0
2019-09-17 12:57:58 GMT 54.590973 4.393283 37,000 214 459 64
2019-09-17 12:57:55 GMT 54.596931 4.399275 37,000 211 465 0
2019-09-17 12:57:51 GMT 54.605030 4.407682 37,000 212 464 0
2019-09-17 12:57:48 GMT 54.609787 4.412626 37,000 213 462 0
2019-09-17 12:57:45 GMT 54.615227 4.418418 37,000 213 462 0
2019-09-17 12:57:40 GMT 54.624630 4.428572 37,000 213 461 0
2019-09-17 12:57:37 GMT 54.629288 4.433710 37,000 214 459 0
2019-09-17 12:57:34 GMT 54.635010 4.440011 37,000 214 459 0
2019-09-17 12:57:26 GMT 54.650280 4.457203 37,000 214 458 64
2019-09-17 12:57:22 GMT 54.655563 4.463196 37,000 214 457 0
2019-09-17 12:57:18 GMT 54.663345 4.472001 37,000 214 458 64
2019-09-17 12:57:14 GMT 54.669754 4.479191 37,000 214 457 64
2019-09-17 12:57:10 GMT 54.676804 4.487188 37,000 214 457 64
2019-09-17 12:57:07 GMT 54.682819 4.493991 37,000 214 457 64
2019-09-17 12:57:04 GMT 54.689896 4.501981 37,000 214 457 0
2019-09-17 12:57:01 GMT 54.701206 4.514798 37,000 214 458 0
2019-09-17 12:56:57 GMT 54.701206 4.514798 37,000 214 457 64
2019-09-17 12:56:54 GMT 54.706512 4.520793 37,000 214 457 64
2019-09-17 12:56:51 GMT 54.713219 4.528365 37,000 214 458 0
2019-09-17 12:56:45 GMT 54.722389 4.538768 37,000 214 459 64
2019-09-17 12:56:37 GMT 54.736176 4.554398 37,000 214 457 64
2019-09-17 12:56:33 GMT 54.742538 4.561669 37,000 214 457 0
2019-09-17 12:56:29 GMT 54.758465 4.579717 37,000 214 457 0
2019-09-17 12:56:24 GMT 54.758465 4.579717 37,000 214 457 0
2019-09-17 12:56:20 GMT 54.776157 4.599693 37,000 214 457 0
2019-09-17 12:56:14 GMT 54.776157 4.599693 37,000 214 460 64
2019-09-17 12:56:09 GMT 54.785706 4.610542 37,000 214 458 64
2019-09-17 12:56:00 GMT 54.800877 4.627824 37,000 214 458 64
2019-09-17 12:55:57 GMT 54.806213 4.633807 37,000 214 459 64
2019-09-17 12:55:53 GMT 54.812931 4.641474 37,000 214 458 0
2019-09-17 12:55:48 GMT 54.823502 4.653542 37,000 214 458 0
2019-09-17 12:55:42 GMT 54.834114 4.665694 37,000 214 459 0
2019-09-17 12:55:39 GMT 54.839096 4.671353 37,000 214 458 64
2019-09-17 12:55:35 GMT 54.845078 4.678156 37,000 214 458 64
2019-09-17 12:55:31 GMT 54.853592 4.687850 37,000 214 458 64
2019-09-17 12:55:27 GMT 54.859955 4.695120 37,000 214 459 64
2019-09-17 12:55:22 GMT 54.868423 4.704814 37,000 214 459 0
2019-09-17 12:55:18 GMT 54.885788 4.724620 37,000 214 459 64
2019-09-17 12:55:13 GMT 54.891083 4.730745 37,000 214 459 0
2019-09-17 12:55:09 GMT 54.905273 4.746902 37,000 214 459 0
2019-09-17 12:55:01 GMT 54.910553 4.753002 37,000 214 459 128
2019-09-17 12:54:58 GMT 54.910553 4.753002 37,000 214 459 128
2019-09-17 12:54:55 GMT 54.924362 4.768874 37,000 214 460 0
2019-09-17 12:54:51 GMT 54.924362 4.768874 37,000 214 460 0
2019-09-17 12:54:48 GMT 54.939285 4.785919 37,000 214 460 64
2019-09-17 12:54:43 GMT 54.939285 4.785919 37,000 214 460 0
2019-09-17 12:54:38 GMT 54.948120 4.796115 37,000 214 460 0
2019-09-17 12:54:33 GMT 54.954849 4.803853 37,000 214 460 0
2019-09-17 12:54:30 GMT 54.961258 4.811204 37,000 214 460 64
2019-09-17 12:54:27 GMT 54.965858 4.816506 37,000 214 460 64
2019-09-17 12:54:24 GMT 54.971191 4.822594 37,000 214 460 64
2019-09-17 12:54:20 GMT 54.978973 4.831561 37,000 214 460 64
2019-09-17 12:54:13 GMT 54.990326 4.844567 37,000 214 460 64
2019-09-17 12:54:08 GMT 55.001282 4.857205 37,000 214 460 64
2019-09-17 12:54:01 GMT 55.011944 4.869357 37,000 214 459 64
2019-09-17 12:53:58 GMT 55.018322 4.876681 37,000 214 460 64
2019-09-17 12:53:51 GMT 55.029633 4.889748 37,000 214 460 64
2019-09-17 12:53:48 GMT 55.035690 4.896671 37,000 214 459 64
2019-09-17 12:53:40 GMT 55.049149 4.912181 37,000 214 460 64
2019-09-17 12:53:35 GMT 55.057285 4.921625 37,000 214 460 64
2019-09-17 12:53:31 GMT 55.066456 4.932279 37,000 214 460 64
2019-09-17 12:53:26 GMT 55.075333 4.942474 37,000 214 459 64
2019-09-17 12:53:18 GMT 55.088428 4.957581 37,000 214 459 64
2019-09-17 12:53:15 GMT 55.094761 4.964988 37,000 214 458 0
2019-09-17 12:53:08 GMT 55.106770 4.978887 37,000 214 458 64
2019-09-17 12:53:05 GMT 55.111008 4.983798 37,000 214 458 64
2019-09-17 12:53:01 GMT 55.117722 4.991509 37,000 214 458 64
2019-09-17 12:52:54 GMT 55.130047 5.005854 37,000 214 457 0
2019-09-17 12:52:51 GMT 55.134979 5.011597 37,000 214 455 64
2019-09-17 12:52:48 GMT 55.141663 5.019298 37,000 214 457 0
2019-09-17 12:52:44 GMT 55.148712 5.027457 37,000 214 457 0
2019-09-17 12:52:38 GMT 55.158863 5.039312 37,000 214 455 64
2019-09-17 12:52:35 GMT 55.164139 5.045390 37,000 214 454 64
2019-09-17 12:52:27 GMT 55.182999 5.067363 37,000 214 455 64
2019-09-17 12:52:24 GMT 55.182999 5.067363 37,000 214 454 0
2019-09-17 12:52:14 GMT 55.200806 5.088168 37,000 214 453 64
2019-09-17 12:52:10 GMT 55.207088 5.095409 37,000 214 454 64
2019-09-17 12:52:03 GMT 55.218914 5.109225 37,000 214 453 64
2019-09-17 12:51:57 GMT 55.229343 5.121460 37,000 214 452 64
2019-09-17 12:51:53 GMT 55.236649 5.129969 37,000 214 452 64
2019-09-17 12:51:40 GMT 55.259228 5.156416 37,000 214 452 64
2019-09-17 12:51:36 GMT 55.266495 5.164948 37,000 214 452 0
2019-09-17 12:51:33 GMT 55.272404 5.171814 37,000 214 452 0
2019-09-17 12:51:30 GMT 55.276546 5.176725 37,000 214 452 64
2019-09-17 12:51:27 GMT 55.282425 5.183608 37,000 214 452 64
2019-09-17 12:51:21 GMT 55.291817 5.194536 37,000 214 452 64
2019-09-17 12:51:15 GMT 55.302567 5.207116 37,000 214 452 64
2019-09-17 12:51:08 GMT 55.314331 5.221010 37,000 214 458 0
2019-09-17 12:51:03 GMT 55.323704 5.231989 37,000 214 453 64
2019-09-17 12:50:53 GMT 55.341114 5.252380 37,000 214 459 64
2019-09-17 12:50:46 GMT 55.357826 5.272023 37,000 214 455 0
2019-09-17 12:50:43 GMT 55.357826 5.272023 37,000 214 456 64
2019-09-17 12:50:36 GMT 55.371460 5.288059 37,000 214 455 128
2019-09-17 12:50:27 GMT 55.387154 5.306563 37,000 214 457 64
2019-09-17 12:50:20 GMT 55.399071 5.320629 37,000 214 456 64
2019-09-17 12:50:13 GMT 55.410244 5.333779 37,000 214 457 64
2019-09-17 12:50:09 GMT 55.417973 5.342934 37,000 214 457 64
2019-09-17 12:49:59 GMT 55.435135 5.363267 37,000 214 458 64
2019-09-17 12:49:54 GMT 55.443203 5.372814 37,000 214 458 64
2019-09-17 12:49:43 GMT 55.463196 5.396534 37,000 215 458 0
2019-09-17 12:49:32 GMT 55.482147 5.419006 37,000 214 458 64
2019-09-17 12:49:22 GMT 55.500320 5.440646 37,000 214 458 64
2019-09-17 12:49:11 GMT 55.519596 5.463552 37,000 214 458 64
2019-09-17 12:49:06 GMT 55.529419 5.475225 37,000 214 459 64
2019-09-17 12:48:59 GMT 55.554382 5.504899 37,000 214 459 64
2019-09-17 12:48:49 GMT 55.560013 5.511558 37,000 215 460 0
2019-09-17 12:48:45 GMT 55.565311 5.517797 37,000 214 460 0
2019-09-17 12:48:39 GMT 55.576218 5.530784 37,000 214 460 64
2019-09-17 12:48:28 GMT 55.594917 5.553074 37,000 215 462 64
2019-09-17 12:48:22 GMT 55.605148 5.565241 37,000 215 464 64
2019-09-17 12:48:18 GMT 55.613617 5.575395 37,000 215 462 0
2019-09-17 12:48:09 GMT 55.629181 5.593955 37,000 215 464 0
2019-09-17 12:48:05 GMT 55.635929 5.601997 37,000 214 463 64
2019-09-17 12:48:02 GMT 55.641609 5.608778 37,000 215 464 0
2019-09-17 12:47:59 GMT 55.647987 5.616417 37,000 215 464 0
2019-09-17 12:47:56 GMT 55.652618 5.621920 37,000 215 464 0
2019-09-17 12:47:49 GMT 55.663239 5.634655 37,000 215 464 64
2019-09-17 12:47:45 GMT 55.671021 5.644060 37,000 215 465 64
2019-09-17 12:47:38 GMT 55.688782 5.665366 37,000 215 465 64
2019-09-17 12:47:35 GMT 55.688782 5.665366 37,000 215 465 64
2019-09-17 12:47:30 GMT 55.699402 5.678184 37,000 215 466 64
2019-09-17 12:47:26 GMT 55.705433 5.685511 37,000 215 466 64
2019-09-17 12:47:19 GMT 55.717850 5.700489 37,000 215 466 64
2019-09-17 12:47:15 GMT 55.724609 5.708685 37,000 215 466 64
2019-09-17 12:47:12 GMT 55.730335 5.715551 37,000 215 467 64
2019-09-17 12:47:08 GMT 55.737461 5.724134 37,000 215 467 64
2019-09-17 12:47:02 GMT 55.749561 5.738726 37,000 215 467 64
2019-09-17 12:46:56 GMT 55.764130 5.756337 37,000 215 467 64
2019-09-17 12:46:45 GMT 55.796173 5.795122 37,000 215 469 64
2019-09-17 12:46:35 GMT 55.796173 5.795122 37,000 215 469 64
2019-09-17 12:46:27 GMT 55.809986 5.812025 37,000 215 466 128
2019-09-17 12:46:24 GMT 55.815666 5.818892 37,000 215 467 128
2019-09-17 12:46:16 GMT 55.830612 5.837088 37,000 215 467 128
2019-09-17 12:46:11 GMT 55.837780 5.845757 36,975 215 467 64
2019-09-17 12:46:06 GMT 55.847740 5.857859 36,975 215 468 0
2019-09-17 12:46:01 GMT 55.856308 5.868244 37,000 215 468 0
2019-09-17 12:45:54 GMT 55.868412 5.883093 37,000 215 468 0
2019-09-17 12:45:51 GMT 55.883743 5.901739 37,000 215 486 0
2019-09-17 12:45:46 GMT 55.888382 5.907383 36,975 215 471 0
2019-09-17 12:45:40 GMT 55.893036 5.912975 37,025 215 471 0
2019-09-17 12:45:36 GMT 55.902023 5.923862 37,350 215 486 0
2019-09-17 12:45:29 GMT 55.923065 5.949354 37,025 215 476 -384
2019-09-17 12:45:24 GMT 55.923065 5.949354 37,050 215 477 -384
2019-09-17 12:45:19 GMT 55.931816 5.959911 37,075 215 478 -576
2019-09-17 12:45:12 GMT 55.944897 5.975876 37,150 215 479 -512
2019-09-17 12:45:05 GMT 55.956581 5.990124 37,200 215 479 -576
2019-09-17 12:45:02 GMT 55.964218 5.999451 37,250 215 480 -768
2019-09-17 12:44:56 GMT 55.975891 6.013849 37,350 215 480 -1024
2019-09-17 12:44:53 GMT 55.980240 6.019259 38,000 215 486 0
2019-09-17 12:44:50 GMT 55.996262 6.038985 37,675 215 479 -1344
2019-09-17 12:44:44 GMT 55.996262 6.038985 38,000 215 486 0
2019-09-17 12:44:40 GMT 56.002121 6.046143 37,650 215 479 -1088
2019-09-17 12:44:35 GMT 56.012329 6.058627 37,775 215 479 -1024
2019-09-17 12:44:32 GMT 56.018543 6.066170 37,900 215 480 -768
2019-09-17 12:44:29 GMT 56.023270 6.072027 37,850 215 480 -704
2019-09-17 12:44:21 GMT 56.037918 6.089921 37,925 215 484 -256
2019-09-17 12:44:15 GMT 56.051147 6.106234 37,975 215 484 -192
2019-09-17 12:44:10 GMT 56.057785 6.114391 38,000 215 486 -128
2019-09-17 12:44:05 GMT 56.067398 6.126126 38,000 215 486 0
2019-09-17 12:43:57 GMT 56.081852 6.143932 38,000 215 487 64
2019-09-17 12:43:52 GMT 56.091442 6.155777 38,000 215 486 64
2019-09-17 12:43:45 GMT 56.104805 6.172171 38,000 215 486 64
2019-09-17 12:43:42 GMT 56.110336 6.178977 38,000 215 486 128
2019-09-17 12:43:39 GMT 56.115509 6.185386 38,000 215 487 64
2019-09-17 12:43:36 GMT 56.120682 6.191795 38,000 215 485 64
2019-09-17 12:43:28 GMT 56.135468 6.210022 38,000 215 487 64
2019-09-17 12:43:23 GMT 56.145489 6.222382 38,000 215 486 64
2019-09-17 12:43:18 GMT 56.153275 6.231911 38,000 215 486 64
2019-09-17 12:43:12 GMT 56.165863 6.247475 38,000 215 486 64
2019-09-17 12:43:03 GMT 56.189438 6.276772 38,000 215 485 64
2019-09-17 12:42:51 GMT 56.203819 6.294565 38,000 215 484 64
2019-09-17 12:42:39 GMT 56.224777 6.320551 38,000 215 484 64
2019-09-17 12:42:34 GMT 56.235764 6.334284 38,000 215 483 64
2019-09-17 12:42:28 GMT 56.244926 6.345720 38,000 215 488 0
2019-09-17 12:42:20 GMT 56.260712 6.365412 38,000 215 487 64
2019-09-17 12:42:10 GMT 56.279469 6.388807 38,000 215 486 0
2019-09-17 12:41:57 GMT 56.303467 6.418762 38,000 215 487 128
2019-09-17 12:41:53 GMT 56.311569 6.428916 38,000 215 487 0
2019-09-17 12:41:50 GMT 56.316383 6.434898 38,000 215 487 64
2019-09-17 12:41:45 GMT 56.325623 6.446478 38,000 215 488 64
2019-09-17 12:41:37 GMT 56.339676 6.464039 38,000 215 487 0
2019-09-17 12:41:28 GMT 56.356659 6.485346 38,000 215 487 0
2019-09-17 12:41:23 GMT 56.366272 6.497414 38,000 215 487 0
2019-09-17 12:41:15 GMT 56.380280 6.514976 38,000 215 487 0
2019-09-17 12:41:12 GMT 56.386539 6.522875 38,000 215 488 64
2019-09-17 12:41:06 GMT 56.397617 6.536865 38,000 215 488 64
2019-09-17 12:41:02 GMT 56.404274 6.545191 38,000 215 488 64
2019-09-17 12:40:53 GMT 56.423813 6.569907 38,000 215 489 64
2019-09-17 12:40:43 GMT 56.440491 6.590853 38,000 215 489 64
2019-09-17 12:40:38 GMT 56.449383 6.602011 38,000 215 489 64
2019-09-17 12:40:32 GMT 56.459763 6.615057 38,000 216 490 64
2019-09-17 12:40:22 GMT 56.478653 6.638905 38,000 215 490 0
2019-09-17 12:40:17 GMT 56.487534 6.650141 38,000 216 491 0
2019-09-17 12:40:11 GMT 56.499054 6.664753 38,000 216 491 0
2019-09-17 12:40:02 GMT 56.515686 6.685847 38,000 216 490 64
2019-09-17 12:39:59 GMT 56.521259 6.692905 38,000 216 490 64
2019-09-17 12:39:52 GMT 56.536423 6.712147 38,000 215 490 64
2019-09-17 12:39:40 GMT 56.556473 6.737532 38,000 216 491 64
2019-09-17 12:39:30 GMT 56.575356 6.761570 38,000 216 490 0
2019-09-17 12:39:22 GMT 56.590485 6.780895 38,000 216 490 0
2019-09-17 12:39:18 GMT 56.596767 6.788931 38,000 216 490 0
2019-09-17 12:39:12 GMT 56.610081 6.805942 38,000 216 489 0
2019-09-17 12:39:06 GMT 56.621906 6.821004 38,000 215 490 64
2019-09-17 12:39:01 GMT 56.629307 6.830395 38,000 216 490 0
2019-09-17 12:38:58 GMT 56.648533 6.855026 38,000 216 492 64
2019-09-17 12:38:50 GMT 56.648533 6.855026 38,000 216 490 64
2019-09-17 12:38:46 GMT 56.656265 6.864910 38,000 216 492 64
2019-09-17 12:38:40 GMT 56.666969 6.878682 38,000 216 490 64
2019-09-17 12:38:32 GMT 56.681396 6.897182 38,000 216 490 64
2019-09-17 12:38:28 GMT 56.689545 6.907654 38,000 216 490 64
2019-09-17 12:38:20 GMT 56.706573 6.929541 38,000 216 492 64
2019-09-17 12:38:16 GMT 56.712524 6.937094 38,000 216 492 64
2019-09-17 12:38:10 GMT 56.722916 6.950483 38,000 216 493 0
2019-09-17 12:37:59 GMT 56.742966 6.976233 38,000 216 494 0
2019-09-17 12:37:56 GMT 56.748962 6.983871 38,000 216 495 0
2019-09-17 12:37:53 GMT 56.754532 6.991026 38,000 216 495 0
2019-09-17 12:37:50 GMT 56.761284 6.999620 38,000 216 496 0
2019-09-17 12:37:45 GMT 56.785583 7.030821 38,000 216 496 0
2019-09-17 12:37:37 GMT 56.785583 7.030821 38,000 216 497 0
2019-09-17 12:37:29 GMT 56.798664 7.047729 38,000 216 496 128
2019-09-17 12:37:25 GMT 56.806904 7.058361 38,000 216 497 64
2019-09-17 12:37:19 GMT 56.825272 7.081976 38,000 216 496 128
2019-09-17 12:37:15 GMT 56.825272 7.081976 38,000 216 496 0
2019-09-17 12:37:09 GMT 56.837219 7.097511 38,000 216 497 0
2019-09-17 12:37:05 GMT 56.843948 7.106266 38,000 216 496 0
2019-09-17 12:36:58 GMT 56.857738 7.124191 38,000 216 497 0
2019-09-17 12:36:47 GMT 56.877941 7.150328 38,000 216 497 0
2019-09-17 12:36:42 GMT 56.889160 7.164858 38,000 216 497 0
2019-09-17 12:36:38 GMT 56.895538 7.173128 38,000 216 497 64
2019-09-17 12:36:35 GMT 56.902267 7.181883 38,000 216 497 64
2019-09-17 12:36:28 GMT 56.914627 7.197906 38,000 216 498 64
2019-09-17 12:36:20 GMT 56.928497 7.215958 38,000 216 498 0
2019-09-17 12:36:17 GMT 56.934494 7.223768 38,000 216 498 64
2019-09-17 12:36:14 GMT 56.939758 7.230549 38,000 216 498 64
2019-09-17 12:36:07 GMT 56.953949 7.249088 38,000 216 498 64
2019-09-17 12:36:03 GMT 56.962967 7.260847 38,000 216 499 0
2019-09-17 12:35:57 GMT 56.973095 7.274012 38,000 216 499 0
2019-09-17 12:35:52 GMT 56.980591 7.283847 38,000 216 498 64
2019-09-17 12:35:46 GMT 56.991856 7.298554 38,000 216 498 64
2019-09-17 12:35:43 GMT 56.998215 7.306852 38,000 216 499 64
2019-09-17 12:35:37 GMT 57.009430 7.321615 38,000 216 499 64
2019-09-17 12:35:34 GMT 57.013916 7.327538 38,000 216 499 64
2019-09-17 12:35:31 GMT 57.021378 7.337322 38,000 216 499 64
2019-09-17 12:35:26 GMT 57.029617 7.348137 38,000 216 499 64
2019-09-17 12:35:21 GMT 57.038967 7.360485 38,000 216 499 64
2019-09-17 12:35:16 GMT 57.049072 7.373714 38,000 216 499 64
2019-09-17 12:35:09 GMT 57.061844 7.390451 38,000 216 499 64
2019-09-17 12:35:05 GMT 57.068947 7.399824 38,000 216 500 0
2019-09-17 12:35:01 GMT 57.075699 7.408684 38,000 216 500 0
2019-09-17 12:34:55 GMT 57.088806 7.425985 38,000 216 500 64
2019-09-17 12:34:51 GMT 57.094803 7.433882 38,000 216 500 64
2019-09-17 12:34:45 GMT 57.106796 7.449760 38,000 216 500 64
2019-09-17 12:34:40 GMT 57.116547 7.462635 38,000 216 500 64
2019-09-17 12:34:35 GMT 57.125927 7.475044 38,000 216 501 64
2019-09-17 12:34:25 GMT 57.144642 7.499852 38,000 216 501 64
2019-09-17 12:34:18 GMT 57.157059 7.516279 38,000 216 502 64
2019-09-17 12:34:14 GMT 57.164940 7.526698 38,000 216 503 64
2019-09-17 12:34:04 GMT 57.183426 7.551041 38,000 216 503 64
2019-09-17 12:33:58 GMT 57.197384 7.569491 38,000 216 504 0
2019-09-17 12:33:55 GMT 57.203064 7.577047 38,000 216 504 -64
2019-09-17 12:33:48 GMT 57.213261 7.590578 38,000 217 508 64
2019-09-17 12:33:44 GMT 57.221546 7.601653 38,000 216 504 -64
2019-09-17 12:33:38 GMT 57.241470 7.628288 38,000 217 508 64
2019-09-17 12:33:33 GMT 57.241470 7.628288 38,000 216 504 64
2019-09-17 12:33:27 GMT 57.253510 7.644424 38,000 217 508 64
2019-09-17 12:33:23 GMT 57.259953 7.652952 38,000 216 504 64
2019-09-17 12:33:17 GMT 57.271263 7.667925 38,000 216 504 64
2019-09-17 12:33:12 GMT 57.281433 7.681503 38,000 216 505 64
2019-09-17 12:33:08 GMT 57.289371 7.692024 38,000 216 505 0
2019-09-17 12:33:03 GMT 57.301117 7.707682 38,000 216 506 0
2019-09-17 12:32:55 GMT 57.313248 7.723732 38,000 216 506 0
2019-09-17 12:32:52 GMT 57.332527 7.749526 38,000 216 506 64
2019-09-17 12:32:45 GMT 57.332527 7.749526 38,000 216 507 64
2019-09-17 12:32:42 GMT 57.338242 7.757120 38,000 216 507 64
2019-09-17 12:32:37 GMT 57.348083 7.770338 38,000 216 507 64
2019-09-17 12:32:32 GMT 57.356777 7.781953 38,000 216 507 64
2019-09-17 12:32:26 GMT 57.367767 7.796774 38,000 217 508 64
2019-09-17 12:32:21 GMT 57.377216 7.809507 38,000 217 508 64
2019-09-17 12:32:12 GMT 57.395050 7.833509 38,000 216 509 0
2019-09-17 12:32:06 GMT 57.407570 7.850352 38,000 216 509 0
2019-09-17 12:32:01 GMT 57.415157 7.860541 38,000 216 509 64
2019-09-17 12:31:55 GMT 57.428097 7.877906 38,000 216 509 64
2019-09-17 12:31:52 GMT 57.433823 7.885609 38,000 216 509 0
2019-09-17 12:31:45 GMT 57.446777 7.902946 38,000 216 509 0
2019-09-17 12:31:42 GMT 57.453598 7.912216 38,000 216 509 0
2019-09-17 12:31:34 GMT 57.468456 7.932129 38,000 216 509 64
2019-09-17 12:31:31 GMT 57.473019 7.938331 38,000 216 509 64
2019-09-17 12:31:21 GMT 57.492371 7.964487 38,000 217 509 64
2019-09-17 12:31:13 GMT 57.508301 7.986031 38,000 217 508 64
2019-09-17 12:31:00 GMT 57.531738 8.017960 38,000 217 507 0
2019-09-17 12:30:50 GMT 57.551376 8.044739 38,000 217 507 0
2019-09-17 12:30:43 GMT 57.565334 8.063699 38,000 217 506 64
2019-09-17 12:30:40 GMT 57.570236 8.070402 38,000 217 506 64
2019-09-17 12:30:30 GMT 57.590939 8.098607 38,000 217 505 0
2019-09-17 12:30:19 GMT 57.608997 8.123238 38,000 217 506 128
2019-09-17 12:30:09 GMT 57.628281 8.149366 38,000 217 506 64
2019-09-17 12:30:02 GMT 57.641445 8.167360 38,000 217 506 0
2019-09-17 12:29:58 GMT 57.647873 8.176146 38,000 217 506 0
2019-09-17 12:29:54 GMT 57.656937 8.188505 38,000 217 506 0
2019-09-17 12:29:49 GMT 57.667049 8.202446 38,000 217 506 0
2019-09-17 12:29:44 GMT 57.675705 8.214340 38,000 217 505 64
2019-09-17 12:29:38 GMT 57.685856 8.228228 38,000 217 505 -64
2019-09-17 12:29:32 GMT 57.697495 8.244295 38,000 217 505 -64
2019-09-17 12:29:26 GMT 57.709133 8.260301 38,000 217 505 64
2019-09-17 12:29:22 GMT 57.715881 8.269515 38,000 217 505 128
2019-09-17 12:29:18 GMT 57.724503 8.281460 38,000 217 506 64
2019-09-17 12:29:12 GMT 57.736923 8.298431 38,000 217 506 64
2019-09-17 12:29:07 GMT 57.744049 8.308233 38,000 217 506 0
2019-09-17 12:29:01 GMT 57.755356 8.323827 38,000 217 507 0
2019-09-17 12:28:57 GMT 57.763275 8.334686 38,000 217 507 64
2019-09-17 12:28:52 GMT 57.782455 8.361216 38,000 217 507 64
2019-09-17 12:28:47 GMT 57.782455 8.361216 38,000 217 507 64
2019-09-17 12:28:40 GMT 57.796783 8.380974 38,000 217 507 0
2019-09-17 12:28:37 GMT 57.800934 8.386688 38,000 217 507 -64
2019-09-17 12:28:29 GMT 57.815598 8.407022 38,000 217 507 0
2019-09-17 12:28:26 GMT 57.820862 8.414376 38,000 217 507 0
2019-09-17 12:28:21 GMT 57.833241 8.431549 38,000 217 507 0
2019-09-17 12:28:16 GMT 57.842651 8.444588 38,000 217 507 64
2019-09-17 12:28:09 GMT 57.853180 8.459207 38,000 217 507 64
2019-09-17 12:28:06 GMT 57.859222 8.467535 38,000 217 507 64
2019-09-17 12:28:00 GMT 57.872345 8.485840 38,000 217 507 64
2019-09-17 12:27:55 GMT 57.879097 8.495270 38,000 217 507 64
2019-09-17 12:27:49 GMT 57.891895 8.513123 38,000 217 507 0
2019-09-17 12:27:45 GMT 57.898270 8.522024 38,000 217 508 0
2019-09-17 12:27:36 GMT 57.917454 8.548828 38,000 217 508 64
2019-09-17 12:27:25 GMT 57.936260 8.575104 38,000 217 509 64
2019-09-17 12:27:15 GMT 57.956223 8.602915 38,000 217 508 0
2019-09-17 12:27:07 GMT 57.970551 8.622939 38,000 217 508 0
2019-09-17 12:27:04 GMT 57.975815 8.630381 38,000 217 508 0
2019-09-17 12:26:54 GMT 57.994267 8.656128 38,000 217 508 64
2019-09-17 12:26:44 GMT 58.014221 8.684072 38,000 217 508 0
2019-09-17 12:26:34 GMT 58.032257 8.709412 38,000 217 508 0
2019-09-17 12:26:24 GMT 58.070618 8.763369 38,000 217 508 0
2019-09-17 12:26:13 GMT 58.090164 8.790923 38,000 217 508 0
2019-09-17 12:26:04 GMT 58.090164 8.790923 38,000 217 508 64
2019-09-17 12:25:53 GMT 58.109295 8.817993 38,000 217 508 0
2019-09-17 12:25:48 GMT 58.117950 8.830173 38,000 217 509 0
2019-09-17 12:25:43 GMT 58.128525 8.844969 38,000 217 509 0
2019-09-17 12:25:32 GMT 58.148071 8.872612 38,000 217 510 64
2019-09-17 12:25:23 GMT 58.167255 8.899841 38,000 217 510 64
2019-09-17 12:25:16 GMT 58.178925 8.916468 38,000 217 510 64
2019-09-17 12:25:12 GMT 58.186806 8.927673 38,000 218 509 0
2019-09-17 12:25:02 GMT 58.205612 8.954498 38,000 217 509 64
2019-09-17 12:24:51 GMT 58.225117 8.982239 38,000 218 509 64
2019-09-17 12:24:41 GMT 58.244293 9.009586 38,000 218 509 64
2019-09-17 12:24:31 GMT 58.263794 9.037584 38,000 217 510 64
2019-09-17 12:24:27 GMT 58.271347 9.048304 38,000 217 510 64
2019-09-17 12:24:20 GMT 58.283386 9.065493 38,000 217 510 0
2019-09-17 12:24:16 GMT 58.292404 9.078428 38,000 218 511 0
2019-09-17 12:24:10 GMT 58.302933 9.093490 38,000 217 510 0
2019-09-17 12:24:04 GMT 58.313461 9.108552 38,000 218 511 0
2019-09-17 12:23:59 GMT 58.322880 9.122040 38,000 218 511 0
2019-09-17 12:23:49 GMT 58.342476 9.150146 38,000 217 512 0
2019-09-17 12:23:43 GMT 58.354488 9.167450 38,000 218 511 64
2019-09-17 12:23:38 GMT 58.362396 9.178811 38,000 218 511 64
2019-09-17 12:23:29 GMT 58.381535 9.206451 38,000 218 511 0
2019-09-17 12:23:26 GMT 58.386047 9.212952 38,000 218 511 0
2019-09-17 12:23:22 GMT 58.392426 9.222225 38,000 218 510 0
2019-09-17 12:23:18 GMT 58.401039 9.234650 38,000 218 510 64
2019-09-17 12:23:15 GMT 58.405556 9.241150 38,000 218 509 64
2019-09-17 12:23:10 GMT 58.417519 9.258545 38,000 218 510 0
2019-09-17 12:23:06 GMT 58.425385 9.269892 38,000 218 510 0
2019-09-17 12:22:59 GMT 58.436977 9.286743 38,000 218 509 0
2019-09-17 12:22:55 GMT 58.444107 9.297003 38,000 218 509 0
2019-09-17 12:22:49 GMT 58.455322 9.313305 38,000 218 509 0
2019-09-17 12:22:45 GMT 58.462830 9.324114 38,000 218 508 0
2019-09-17 12:22:39 GMT 58.474407 9.340942 38,000 218 508 0
2019-09-17 12:22:34 GMT 58.481899 9.351746 38,000 218 508 0
2019-09-17 12:22:28 GMT 58.494564 9.370239 38,000 218 509 0
2019-09-17 12:22:24 GMT 58.501648 9.380552 38,000 218 509 0
2019-09-17 12:22:18 GMT 58.512486 9.396332 38,000 218 508 64
2019-09-17 12:22:14 GMT 58.520679 9.408325 38,000 218 508 64
2019-09-17 12:22:08 GMT 58.531494 9.424055 38,000 218 508 0
2019-09-17 12:22:03 GMT 58.540466 9.437079 38,000 218 509 0
2019-09-17 12:21:58 GMT 58.550949 9.452318 38,000 218 510 0
2019-09-17 12:21:54 GMT 58.558804 9.463806 38,000 218 510 0
2019-09-17 12:21:48 GMT 58.570023 9.480194 38,000 218 511 64
2019-09-17 12:21:43 GMT 58.578644 9.492719 38,000 218 510 0
2019-09-17 12:21:40 GMT 58.585758 9.503174 38,000 218 512 0
2019-09-17 12:21:37 GMT 58.590275 9.509766 38,000 218 512 0
2019-09-17 12:21:33 GMT 58.597771 9.520660 38,000 218 512 0
2019-09-17 12:21:30 GMT 58.603363 9.528956 38,000 218 512 64
2019-09-17 12:21:27 GMT 58.609360 9.537728 38,000 218 512 64
2019-09-17 12:21:21 GMT 58.623280 9.558105 38,000 218 512 64
2019-09-17 12:21:16 GMT 58.641251 9.584564 38,000 218 512 64
2019-09-17 12:21:10 GMT 58.641251 9.584564 38,000 218 512 64
2019-09-17 12:21:06 GMT 58.647255 9.593353 38,000 218 512 0
2019-09-17 12:21:02 GMT 58.655090 9.604975 38,000 218 512 0
2019-09-17 12:20:59 GMT 58.661865 9.614898 38,000 218 512 0
2019-09-17 12:20:56 GMT 58.667458 9.623199 38,000 218 512 0
2019-09-17 12:20:49 GMT 58.680214 9.641968 38,000 218 511 0
2019-09-17 12:20:45 GMT 58.687660 9.652954 38,000 218 511 0
2019-09-17 12:20:40 GMT 58.698879 9.669525 38,000 218 511 64
2019-09-17 12:20:35 GMT 58.716850 9.695984 38,000 218 511 64
2019-09-17 12:20:29 GMT 58.716850 9.695984 38,000 218 511 64
2019-09-17 12:20:25 GMT 58.724670 9.707573 38,000 218 512 64
2019-09-17 12:20:19 GMT 58.737751 9.726929 38,000 218 512 0
2019-09-17 12:20:13 GMT 58.745991 9.739105 38,000 218 512 0
2019-09-17 12:20:08 GMT 58.756119 9.754087 38,000 218 512 0
2019-09-17 12:20:04 GMT 58.763214 9.764648 38,000 218 512 0
2019-09-17 12:19:58 GMT 58.776306 9.784034 38,000 218 512 0
2019-09-17 12:19:54 GMT 58.782303 9.792894 38,000 218 512 0
2019-09-17 12:19:49 GMT 58.794296 9.810614 38,000 218 511 64
2019-09-17 12:19:43 GMT 58.802490 9.822841 38,000 218 511 64
2019-09-17 12:19:38 GMT 58.812973 9.838434 38,000 218 511 0
2019-09-17 12:19:34 GMT 58.821167 9.850661 38,000 218 512 0
2019-09-17 12:19:28 GMT 58.832020 9.866821 38,000 218 511 64
2019-09-17 12:19:23 GMT 58.840576 9.879721 38,000 218 511 0
2019-09-17 12:19:17 GMT 58.852177 9.896977 38,000 218 511 64
2019-09-17 12:19:13 GMT 58.859627 9.908153 38,000 218 513 64
2019-09-17 12:19:07 GMT 58.871201 9.925415 38,000 218 512 64
2019-09-17 12:19:03 GMT 58.878292 9.935997 38,000 218 512 64
2019-09-17 12:18:58 GMT 58.887276 9.949446 38,000 218 513 64
2019-09-17 12:18:55 GMT 58.891388 9.955627 38,000 218 513 64
2019-09-17 12:18:52 GMT 58.898117 9.965698 38,000 218 513 0
2019-09-17 12:18:45 GMT 58.910461 9.984110 38,000 218 513 64
2019-09-17 12:18:42 GMT 58.916420 9.993107 38,000 218 513 64
2019-09-17 12:18:35 GMT 58.929520 10.012848 38,000 218 514 0
2019-09-17 12:18:32 GMT 58.935879 10.022373 38,000 218 513 0
2019-09-17 12:18:25 GMT 58.948975 10.042145 38,000 218 513 0
2019-09-17 12:18:22 GMT 58.954544 10.050596 38,000 218 513 0
2019-09-17 12:18:15 GMT 58.968742 10.072000 38,000 218 513 0
2019-09-17 12:18:11 GMT 58.974380 10.080414 38,000 218 513 0
2019-09-17 12:18:04 GMT 58.993462 10.109032 38,000 218 513 0
2019-09-17 12:17:57 GMT 59.003193 10.123617 38,000 218 513 0
2019-09-17 12:17:54 GMT 59.007294 10.129852 38,000 218 513 0
2019-09-17 12:17:51 GMT 59.012875 10.138297 38,000 218 513 0
2019-09-17 12:17:44 GMT 59.027027 10.159702 38,000 218 512 0
2019-09-17 12:17:40 GMT 59.032288 10.167563 38,000 218 512 0
2019-09-17 12:17:35 GMT 59.042313 10.182861 38,000 219 512 64
2019-09-17 12:17:31 GMT 59.051239 10.196411 38,000 219 512 64
2019-09-17 12:17:25 GMT 59.060944 10.211060 38,000 219 512 0
2019-09-17 12:17:20 GMT 59.070229 10.225241 38,000 219 512 0
2019-09-17 12:17:15 GMT 59.080654 10.241057 38,000 219 512 0
2019-09-17 12:17:10 GMT 59.088848 10.253559 38,000 219 512 0
2019-09-17 12:17:02 GMT 59.104889 10.277893 38,000 219 512 64
2019-09-17 12:16:58 GMT 59.111572 10.288055 38,000 219 512 64
2019-09-17 12:16:55 GMT 59.118641 10.298925 38,000 219 512 64
2019-09-17 12:16:49 GMT 59.127579 10.312468 38,000 218 513 0
2019-09-17 12:16:44 GMT 59.138397 10.328888 38,000 219 512 64
2019-09-17 12:16:39 GMT 59.146591 10.341339 38,000 219 512 64
2019-09-17 12:16:34 GMT 59.156628 10.356698 38,000 219 512 0
2019-09-17 12:16:28 GMT 59.168884 10.375488 38,000 219 512 0
2019-09-17 12:16:23 GMT 59.176693 10.387479 38,000 219 512 0
2019-09-17 12:16:20 GMT 59.183395 10.397707 38,000 219 512 0
2019-09-17 12:16:13 GMT 59.195267 10.415891 38,000 219 512 64
2019-09-17 12:16:08 GMT 59.204544 10.430054 38,000 219 511 64
2019-09-17 12:16:02 GMT 59.216400 10.448273 38,000 219 511 64
2019-09-17 12:15:57 GMT 59.225327 10.461914 38,000 219 511 0
2019-09-17 12:15:52 GMT 59.244194 10.490996 38,000 219 511 0
2019-09-17 12:15:46 GMT 59.244194 10.490996 38,000 219 511 0
2019-09-17 12:15:42 GMT 59.252338 10.503593 38,000 219 511 0
2019-09-17 12:15:39 GMT 59.258301 10.512685 38,000 219 511 0
2019-09-17 12:15:36 GMT 59.262360 10.518951 38,000 219 511 0
2019-09-17 12:15:31 GMT 59.271614 10.533237 38,000 219 511 -64
2019-09-17 12:15:28 GMT 59.290512 10.562256 38,000 219 511 0
2019-09-17 12:15:22 GMT 59.290512 10.562256 38,000 219 510 0
2019-09-17 12:15:16 GMT 59.300858 10.578278 38,000 219 510 64
2019-09-17 12:15:10 GMT 59.311600 10.594798 38,000 219 511 0
2019-09-17 12:15:06 GMT 59.320084 10.607941 38,000 219 511 0
2019-09-17 12:15:01 GMT 59.328232 10.620483 38,000 219 511 64
2019-09-17 12:14:55 GMT 59.338974 10.637039 38,000 219 511 0
2019-09-17 12:14:50 GMT 59.347458 10.650238 38,000 219 511 0
2019-09-17 12:14:45 GMT 59.358154 10.666872 38,000 219 510 0
2019-09-17 12:14:40 GMT 59.366253 10.679469 38,000 219 511 0
2019-09-17 12:14:35 GMT 59.385433 10.709302 38,000 219 510 0
2019-09-17 12:14:30 GMT 59.385433 10.709302 38,000 219 511 64
2019-09-17 12:14:24 GMT 59.396118 10.725861 38,000 219 511 0
2019-09-17 12:14:19 GMT 59.404613 10.739136 38,000 219 511 0
2019-09-17 12:14:13 GMT 59.423744 10.768969 38,000 219 511 0
2019-09-17 12:14:10 GMT 59.423744 10.768969 38,000 219 511 0
2019-09-17 12:14:03 GMT 59.434479 10.785645 38,000 219 511 0
2019-09-17 12:13:59 GMT 59.442226 10.797761 38,000 219 511 0
2019-09-17 12:13:53 GMT 59.453304 10.814998 38,000 219 511 64
2019-09-17 12:13:49 GMT 59.462494 10.829407 38,000 219 510 64
2019-09-17 12:13:45 GMT 59.468761 10.839244 38,000 219 510 64
2019-09-17 12:13:38 GMT 59.487148 10.868036 38,000 219 510 64
2019-09-17 12:13:32 GMT 59.493805 10.878359 38,000 219 510 64
2019-09-17 12:13:25 GMT 59.505539 10.896827 38,000 219 509 64
2019-09-17 12:13:20 GMT 59.514336 10.910655 38,000 219 509 64
2019-09-17 12:13:16 GMT 59.529327 10.934326 38,000 219 508 0
2019-09-17 12:13:12 GMT 59.529327 10.934326 38,000 219 507 0
2019-09-17 12:13:04 GMT 59.543571 10.956873 38,000 219 507 0
2019-09-17 12:13:01 GMT 59.548691 10.964924 38,000 219 507 0
2019-09-17 12:12:53 GMT 59.562519 10.986896 38,000 219 507 0
2019-09-17 12:12:50 GMT 59.568382 10.996083 38,000 219 506 0
2019-09-17 12:12:43 GMT 59.581100 11.016266 38,000 219 506 0
2019-09-17 12:12:40 GMT 59.588726 11.028379 38,000 219 506 64
2019-09-17 12:12:33 GMT 59.599621 11.045711 38,000 219 506 64
2019-09-17 12:12:29 GMT 59.606930 11.057171 38,000 219 506 0
2019-09-17 12:12:23 GMT 59.626923 11.088867 38,000 219 506 0
2019-09-17 12:12:18 GMT 59.626923 11.088867 38,000 219 506 0
2019-09-17 12:12:13 GMT 59.636768 11.104431 38,000 219 505 64
2019-09-17 12:12:08 GMT 59.646915 11.120627 38,000 219 505 0
2019-09-17 12:12:02 GMT 59.664734 11.148834 38,000 219 505 64
2019-09-17 12:11:57 GMT 59.664734 11.148834 38,000 219 505 64
2019-09-17 12:11:52 GMT 59.685745 11.182343 38,000 219 505 64
2019-09-17 12:11:47 GMT 59.685745 11.182343 38,000 219 505 64
2019-09-17 12:11:42 GMT 59.693024 11.193970 38,000 219 505 0
2019-09-17 12:11:38 GMT 59.699894 11.204918 38,000 219 506 0
2019-09-17 12:11:35 GMT 59.711533 11.223481 38,000 220 506 0
2019-09-17 12:11:31 GMT 59.711533 11.223481 38,000 220 506 0
2019-09-17 12:11:27 GMT 59.730339 11.253788 38,000 219 504 0
2019-09-17 12:11:21 GMT 59.730339 11.253788 38,000 219 505 0
2019-09-17 12:11:15 GMT 59.748825 11.283325 38,000 219 504 0
2019-09-17 12:11:11 GMT 59.748825 11.283325 38,000 219 504 0
2019-09-17 12:11:01 GMT 59.767300 11.312887 38,000 219 504 0
2019-09-17 12:10:57 GMT 59.772766 11.321594 38,000 219 504 0
2019-09-17 12:10:50 GMT 59.786499 11.343658 38,000 219 504 0
2019-09-17 12:10:47 GMT 59.791183 11.351150 38,000 219 504 64
2019-09-17 12:10:43 GMT 59.799934 11.365072 38,000 219 504 0
2019-09-17 12:10:40 GMT 59.805706 11.374354 38,000 219 504 0
2019-09-17 12:10:37 GMT 59.809708 11.380737 38,000 219 504 64
2019-09-17 12:10:34 GMT 59.817299 11.392917 38,000 219 505 0
2019-09-17 12:10:30 GMT 59.823486 11.402802 38,000 219 506 0
2019-09-17 12:10:27 GMT 59.829300 11.412140 38,000 219 506 0
2019-09-17 12:10:20 GMT 59.841972 11.432506 38,000 219 505 0
2019-09-17 12:10:16 GMT 59.848160 11.442352 38,000 219 505 64
2019-09-17 12:10:08 GMT 59.862717 11.465607 38,000 219 506 0
2019-09-17 12:10:02 GMT 59.873253 11.482418 38,000 219 506 64
2019-09-17 12:09:59 GMT 59.880157 11.493530 38,000 219 506 0
2019-09-17 12:09:56 GMT 59.885284 11.501678 38,000 219 506 0
2019-09-17 12:09:48 GMT 59.898766 11.523143 38,000 219 506 0
2019-09-17 12:09:45 GMT 59.904190 11.531891 38,000 219 506 0
2019-09-17 12:09:34 GMT 59.926071 11.566772 38,000 219 505 64
2019-09-17 12:09:25 GMT 59.940628 11.589935 38,000 219 505 64
2019-09-17 12:09:20 GMT 59.949039 11.603362 38,000 219 505 64
2019-09-17 12:09:11 GMT 59.967590 11.633006 38,000 219 506 0
2019-09-17 12:09:05 GMT 59.978832 11.651099 38,000 220 506 0
2019-09-17 12:09:00 GMT 59.985764 11.662271 38,000 220 506 0
2019-09-17 12:08:51 GMT 60.003754 11.691821 38,000 221 505 0
2019-09-17 12:08:41 GMT 60.022110 11.723454 38,000 222 505 0
2019-09-17 12:08:30 GMT 60.039909 11.754881 38,000 222 505 0
2019-09-17 12:08:19 GMT 60.058113 11.786957 38,000 222 505 0
2019-09-17 12:08:09 GMT 60.076221 11.819131 38,000 222 505 0
2019-09-17 12:07:59 GMT 60.095074 11.852580 38,000 222 505 0
2019-09-17 12:07:48 GMT 60.112198 11.882945 38,000 222 506 0
2019-09-17 12:07:39 GMT 60.131058 11.916472 38,000 222 505 0
2019-09-17 12:07:28 GMT 60.148499 11.947537 38,000 222 506 0
2019-09-17 12:07:18 GMT 60.165554 11.978040 38,000 222 505 0
2019-09-17 12:07:08 GMT 60.183712 12.010411 38,000 222 505 0
2019-09-17 12:06:57 GMT 60.201462 12.042152 38,000 222 505 0
2019-09-17 12:06:50 GMT 60.214294 12.065244 38,000 222 505 0
2019-09-17 12:06:47 GMT 60.219185 12.073975 38,000 222 505 0
2019-09-17 12:06:41 GMT 60.231659 12.096438 38,000 222 504 0
2019-09-17 12:06:36 GMT 60.237896 12.107620 38,000 222 504 0
2019-09-17 12:06:30 GMT 60.249023 12.127631 38,000 222 505 0
2019-09-17 12:06:26 GMT 60.255260 12.138912 38,000 222 505 0
2019-09-17 12:06:20 GMT 60.266693 12.159497 38,000 222 505 0
2019-09-17 12:06:17 GMT 60.272964 12.170768 38,000 222 505 0
2019-09-17 12:06:10 GMT 60.284775 12.191983 38,000 222 504 0
2019-09-17 12:06:06 GMT 60.290642 12.202574 38,000 222 504 0
2019-09-17 12:05:59 GMT 60.302418 12.223860 38,000 222 504 0
2019-09-17 12:05:56 GMT 60.309036 12.235739 38,000 222 504 0
2019-09-17 12:05:49 GMT 60.326672 12.267707 38,000 222 504 0
2019-09-17 12:05:46 GMT 60.326672 12.267707 38,000 222 504 0
2019-09-17 12:05:39 GMT 60.339195 12.290170 38,000 222 504 64
2019-09-17 12:05:35 GMT 60.344376 12.299573 38,000 222 504 0
2019-09-17 12:05:28 GMT 60.356827 12.322114 38,000 222 504 0
2019-09-17 12:05:24 GMT 60.364101 12.335292 38,000 222 504 0
2019-09-17 12:05:17 GMT 60.374863 12.354789 38,000 222 504 0
2019-09-17 12:05:14 GMT 60.380070 12.364229 38,000 222 505 64
2019-09-17 12:05:07 GMT 60.393242 12.388066 38,000 222 505 0
2019-09-17 12:04:57 GMT 60.410202 12.418907 38,000 223 505 0
2019-09-17 12:04:53 GMT 60.416382 12.430273 38,000 223 505 0
2019-09-17 12:04:47 GMT 60.427784 12.451139 38,000 223 505 0
2019-09-17 12:04:38 GMT 60.444359 12.481548 38,000 223 505 64
2019-09-17 12:04:35 GMT 60.446777 12.485962 38,000 222 505 0
2019-09-17 12:04:25 GMT 60.465771 12.520687 38,000 223 506 64
2019-09-17 12:04:14 GMT 60.483856 12.554816 38,000 225 504 64
2019-09-17 12:04:04 GMT 60.500500 12.588861 38,000 229 502 64
2019-09-17 12:03:53 GMT 60.532948 12.663411 38,000 231 500 64
2019-09-17 12:03:43 GMT 60.532948 12.663411 38,000 232 500 128
2019-09-17 12:03:32 GMT 60.547050 12.700293 38,000 234 498 0
2019-09-17 12:03:22 GMT 60.561295 12.739334 38,000 234 498 0
2019-09-17 12:03:12 GMT 60.575588 12.778277 38,000 234 498 0
2019-09-17 12:03:01 GMT 60.589787 12.817317 38,000 234 497 64
2019-09-17 12:02:51 GMT 60.604031 12.856358 38,000 234 497 0
2019-09-17 12:02:41 GMT 60.618183 12.895301 38,000 234 497 0
2019-09-17 12:02:31 GMT 60.632126 12.933655 38,000 234 497 0
2019-09-17 12:02:20 GMT 60.646774 12.974285 38,000 234 497 0
2019-09-17 12:02:09 GMT 60.660637 13.012619 38,000 234 497 0
2019-09-17 12:01:59 GMT 60.674515 13.050905 38,000 234 496 0
2019-09-17 12:01:49 GMT 60.688568 13.090021 38,000 234 496 0
2019-09-17 12:01:38 GMT 60.702908 13.129937 38,000 234 495 0
2019-09-17 12:01:28 GMT 60.716721 13.168345 38,000 234 495 0
2019-09-17 12:01:18 GMT 60.730728 13.207461 38,000 234 495 0
2019-09-17 12:01:08 GMT 60.744526 13.245784 38,000 234 494 0
2019-09-17 12:00:57 GMT 60.759048 13.286492 38,000 234 494 0
2019-09-17 12:00:47 GMT 60.772457 13.324062 38,000 234 494 0
2019-09-17 12:00:37 GMT 60.786713 13.364016 38,000 234 494 0
2019-09-17 12:00:26 GMT 60.800388 13.402437 38,000 234 494 0
2019-09-17 12:00:16 GMT 60.814308 13.441674 38,000 234 494 0
2019-09-17 12:00:05 GMT 60.828506 13.481740 38,000 235 495 0
2019-09-17 11:59:54 GMT 60.843262 13.523385 38,000 235 495 0
2019-09-17 11:59:44 GMT 60.856888 13.562149 38,000 235 495 0
2019-09-17 11:59:34 GMT 60.871056 13.602349 38,000 235 495 0
2019-09-17 11:59:23 GMT 60.884674 13.641231 38,000 235 496 0
2019-09-17 11:59:12 GMT 60.899918 13.684649 38,000 235 496 0
2019-09-17 11:59:01 GMT 60.913559 13.723534 38,000 235 496 0
2019-09-17 11:58:50 GMT 60.928528 13.766343 38,000 235 497 0
2019-09-17 11:58:39 GMT 60.944046 13.810667 38,000 235 497 0
2019-09-17 11:58:30 GMT 60.955811 13.844384 38,000 235 496 64
2019-09-17 11:58:19 GMT 60.969933 13.884953 38,000 235 496 0
2019-09-17 11:58:08 GMT 60.984558 13.927160 38,000 235 497 0
2019-09-17 11:57:58 GMT 60.999481 13.970158 38,000 235 496 0
2019-09-17 11:57:49 GMT 61.010384 14.001683 38,000 235 496 0
2019-09-17 11:57:45 GMT 61.015179 14.015514 38,000 235 496 0
2019-09-17 11:57:40 GMT 61.022072 14.035427 38,000 235 496 0
2019-09-17 11:57:37 GMT 61.025284 14.044647 38,000 235 496 0
2019-09-17 11:57:29 GMT 61.036148 14.076138 38,000 235 496 0
2019-09-17 11:57:26 GMT 61.040405 14.088450 38,000 235 496 0
2019-09-17 11:57:17 GMT 61.052887 14.124654 38,000 235 496 0
2019-09-17 11:57:09 GMT 61.063202 14.154707 38,000 235 496 0
2019-09-17 11:57:06 GMT 61.066666 14.164734 38,000 235 496 0
2019-09-17 11:56:59 GMT 61.077282 14.195557 38,000 235 496 64
2019-09-17 11:56:56 GMT 61.080185 14.204047 38,000 235 496 64
2019-09-17 11:56:48 GMT 61.091354 14.236516 38,000 235 497 0
2019-09-17 11:56:45 GMT 61.095062 14.247306 38,000 235 497 0
2019-09-17 11:56:38 GMT 61.104839 14.275920 38,000 235 497 0
2019-09-17 11:56:35 GMT 61.108006 14.285177 38,000 235 497 0
2019-09-17 11:56:28 GMT 61.118061 14.314575 38,000 235 497 0
2019-09-17 11:56:24 GMT 61.122025 14.326172 38,000 235 497 0
2019-09-17 11:56:14 GMT 61.135471 14.365641 38,000 235 496 0
2019-09-17 11:56:06 GMT 61.146286 14.397387 38,000 235 497 0
2019-09-17 11:55:59 GMT 61.155537 14.424540 38,000 235 496 0
2019-09-17 11:55:56 GMT 61.163681 14.448591 38,000 235 496 0
2019-09-17 11:55:46 GMT 61.173706 14.478019 38,000 235 496 0
2019-09-17 11:55:42 GMT 61.178207 14.491272 38,000 235 496 0
2019-09-17 11:55:35 GMT 61.187439 14.518433 38,000 235 497 0
2019-09-17 11:55:32 GMT 61.191380 14.530029 38,000 235 496 0
2019-09-17 11:55:25 GMT 61.200317 14.556478 38,000 235 496 0
2019-09-17 11:55:22 GMT 61.204788 14.569735 38,000 235 496 0
2019-09-17 11:55:14 GMT 61.214767 14.599261 38,000 235 496 0
2019-09-17 11:55:11 GMT 61.218708 14.611003 38,000 236 497 0
2019-09-17 11:55:04 GMT 61.228111 14.639079 38,000 236 497 0
2019-09-17 11:55:01 GMT 61.232300 14.651489 38,000 236 497 0
2019-09-17 11:54:51 GMT 61.246170 14.692939 38,000 236 497 0
2019-09-17 11:54:43 GMT 61.255856 14.721781 38,000 236 497 0
2019-09-17 11:54:40 GMT 61.259262 14.731881 38,000 236 497 0
2019-09-17 11:54:33 GMT 61.269196 14.761603 38,000 236 497 0
2019-09-17 11:54:29 GMT 61.274414 14.777200 38,000 236 497 0
2019-09-17 11:54:22 GMT 61.282532 14.801432 38,000 236 497 0
2019-09-17 11:54:19 GMT 61.286720 14.813944 38,000 236 497 0
2019-09-17 11:54:12 GMT 61.295883 14.841254 38,000 236 497 0
2019-09-17 11:54:09 GMT 61.300312 14.854635 38,000 236 497 0
2019-09-17 11:54:02 GMT 61.309479 14.881962 38,000 236 497 0
2019-09-17 11:53:59 GMT 61.314697 14.897657 38,000 236 497 0
2019-09-17 11:53:52 GMT 61.322750 14.921977 38,000 236 497 0
2019-09-17 11:53:48 GMT 61.327194 14.935325 38,000 236 497 0
2019-09-17 11:53:41 GMT 61.336346 14.962769 38,000 236 497 0
2019-09-17 11:53:37 GMT 61.342072 14.980062 38,000 236 498 0
2019-09-17 11:53:31 GMT 61.350174 15.004480 38,000 236 498 64
2019-09-17 11:53:25 GMT 61.357452 15.026452 38,000 236 497 0
2019-09-17 11:53:20 GMT 61.364227 15.046953 38,000 236 497 0
2019-09-17 11:53:15 GMT 61.370453 15.065885 38,000 236 497 0
2019-09-17 11:53:10 GMT 61.377731 15.087956 38,000 236 497 0
2019-09-17 11:53:04 GMT 61.384506 15.108457 38,000 236 497 0
2019-09-17 11:52:58 GMT 61.391785 15.130430 38,000 236 497 0
2019-09-17 11:52:53 GMT 61.398258 15.150146 38,000 236 497 0
2019-09-17 11:52:49 GMT 61.404495 15.169067 38,000 236 497 0
2019-09-17 11:52:42 GMT 61.412315 15.192668 38,000 236 497 0
2019-09-17 11:52:39 GMT 61.418243 15.210866 38,000 236 497 0
2019-09-17 11:52:32 GMT 61.425724 15.233765 38,000 236 497 0
2019-09-17 11:52:27 GMT 61.431961 15.252787 38,000 236 497 0
2019-09-17 11:52:21 GMT 61.440250 15.278015 38,000 236 497 0
2019-09-17 11:52:17 GMT 61.444904 15.292257 38,000 236 497 0
2019-09-17 11:52:12 GMT 61.453190 15.317586 38,000 236 497 0
2019-09-17 11:52:07 GMT 61.458618 15.334266 38,000 236 497 64
2019-09-17 11:52:00 GMT 61.467155 15.360413 38,000 236 497 0
2019-09-17 11:51:56 GMT 61.472580 15.377034 38,000 236 497 0
2019-09-17 11:51:51 GMT 61.480362 15.400772 38,000 236 497 0
2019-09-17 11:51:46 GMT 61.486038 15.418233 38,000 236 498 0
2019-09-17 11:51:39 GMT 61.494064 15.442810 38,000 236 498 0
2019-09-17 11:51:36 GMT 61.499229 15.458679 38,000 236 498 0
2019-09-17 11:51:28 GMT 61.509007 15.488892 38,000 236 498 0
2019-09-17 11:51:24 GMT 61.513412 15.502396 38,000 236 498 0
2019-09-17 11:51:19 GMT 61.521389 15.527039 38,000 236 498 0
2019-09-17 11:51:14 GMT 61.526554 15.543009 38,000 236 498 0
2019-09-17 11:51:07 GMT 61.535568 15.570864 38,000 236 498 64
2019-09-17 11:51:04 GMT 61.540478 15.586039 38,000 236 498 0
2019-09-17 11:50:56 GMT 61.549988 15.615594 38,000 236 498 0
2019-09-17 11:50:53 GMT 61.554348 15.629171 38,000 236 498 0
2019-09-17 11:50:46 GMT 61.562302 15.653850 38,000 236 498 0
2019-09-17 11:50:42 GMT 61.568222 15.672302 38,000 237 499 0
2019-09-17 11:50:36 GMT 61.576218 15.697011 38,000 237 499 0
2019-09-17 11:50:31 GMT 61.581627 15.713806 38,000 237 499 0
2019-09-17 11:50:24 GMT 61.590893 15.742594 38,000 237 499 0
2019-09-17 11:50:21 GMT 61.595501 15.757039 38,000 237 499 0
2019-09-17 11:50:14 GMT 61.604206 15.784200 38,000 237 497 0
2019-09-17 11:50:11 GMT 61.608814 15.798645 38,000 237 497 0
2019-09-17 11:50:00 GMT 61.622173 15.840251 38,000 237 497 0
2019-09-17 11:49:50 GMT 61.635178 15.881032 38,000 237 497 0
2019-09-17 11:49:42 GMT 61.645386 15.913010 38,000 237 497 0
2019-09-17 11:49:39 GMT 61.648956 15.924290 38,000 237 496 0
2019-09-17 11:49:31 GMT 61.658905 15.955505 38,000 237 496 0
2019-09-17 11:49:28 GMT 61.661930 15.965068 38,000 237 496 0
2019-09-17 11:49:21 GMT 61.671844 15.996290 38,000 237 496 0
2019-09-17 11:49:18 GMT 61.674911 16.005903 38,000 237 496 0
2019-09-17 11:49:08 GMT 61.688419 16.048382 38,000 237 496 0
2019-09-17 11:48:57 GMT 61.701591 16.090088 38,000 237 497 0
2019-09-17 11:48:48 GMT 61.714554 16.131069 38,000 237 497 0
2019-09-17 11:48:37 GMT 61.727989 16.173706 38,000 237 497 0
2019-09-17 11:48:29 GMT 61.737854 16.205128 38,000 237 497 0
2019-09-17 11:48:26 GMT 61.741627 16.217243 38,000 237 497 0
2019-09-17 11:48:15 GMT 61.755314 16.260782 38,000 237 497 0
2019-09-17 11:48:05 GMT 61.768440 16.302795 38,000 237 497 0
2019-09-17 11:47:55 GMT 61.794743 16.386820 38,000 237 498 0
2019-09-17 11:47:44 GMT 61.794743 16.386820 38,000 237 498 0
2019-09-17 11:47:33 GMT 61.808075 16.429661 38,000 237 498 0
2019-09-17 11:47:24 GMT 61.820709 16.470173 38,000 237 497 0
2019-09-17 11:47:13 GMT 61.834034 16.513163 38,000 237 497 0
2019-09-17 11:47:02 GMT 61.847351 16.556200 38,000 237 498 0
2019-09-17 11:46:53 GMT 61.859684 16.595968 38,000 237 498 0
2019-09-17 11:46:42 GMT 61.872528 16.637520 38,000 237 498 0
2019-09-17 11:46:31 GMT 61.886078 16.681463 38,000 237 497 0
2019-09-17 11:46:21 GMT 61.899124 16.723841 38,000 237 497 0
2019-09-17 11:46:10 GMT 61.913177 16.769453 38,000 237 497 0
2019-09-17 11:46:00 GMT 61.925415 16.809387 38,000 237 497 0
2019-09-17 11:45:50 GMT 61.938915 16.853434 38,000 238 496 0
2019-09-17 11:45:38 GMT 61.952591 16.898249 38,000 238 495 0
2019-09-17 11:45:28 GMT 61.964798 16.938171 38,000 238 495 0
2019-09-17 11:45:18 GMT 61.977448 16.979664 38,000 238 495 0
2019-09-17 11:45:07 GMT 61.990589 17.022909 38,000 238 495 0
2019-09-17 11:44:58 GMT 62.003998 17.066956 38,000 238 496 0
2019-09-17 11:44:47 GMT 62.016335 17.107746 38,000 238 495 0
2019-09-17 11:44:36 GMT 62.029182 17.150269 38,000 238 495 0
2019-09-17 11:44:26 GMT 62.041985 17.192890 38,000 238 495 0
2019-09-17 11:44:16 GMT 62.054272 17.233786 38,000 238 495 0
2019-09-17 11:44:05 GMT 62.067028 17.276306 38,000 238 495 0
2019-09-17 11:43:55 GMT 62.079529 17.318180 38,000 238 494 0
2019-09-17 11:43:44 GMT 62.093517 17.364908 38,000 238 495 0
2019-09-17 11:43:33 GMT 62.106785 17.409262 38,000 238 495 0
2019-09-17 11:43:23 GMT 62.119026 17.450256 38,000 238 494 0
2019-09-17 11:43:13 GMT 62.131271 17.491253 38,000 238 493 0
2019-09-17 11:43:03 GMT 62.143978 17.533968 38,000 238 494 0
2019-09-17 11:42:53 GMT 62.155884 17.574259 38,000 238 494 0
2019-09-17 11:42:42 GMT 62.168564 17.617086 38,000 238 494 0
2019-09-17 11:42:32 GMT 62.182205 17.663269 38,000 238 494 0
2019-09-17 11:42:22 GMT 62.193878 17.702841 38,000 238 494 0
2019-09-17 11:42:12 GMT 62.206009 17.744040 38,000 238 494 0
2019-09-17 11:42:02 GMT 62.218880 17.787815 38,000 238 494 0
2019-09-17 11:41:51 GMT 62.231232 17.829996 38,000 238 494 0
2019-09-17 11:41:40 GMT 62.243820 17.873028 38,000 238 494 0
2019-09-17 11:41:31 GMT 62.256409 17.916056 38,000 238 494 0
2019-09-17 11:41:20 GMT 62.268692 17.958422 38,000 239 495 0
2019-09-17 11:41:10 GMT 62.281727 18.003210 38,000 239 495 0
2019-09-17 11:40:59 GMT 62.294762 18.048002 38,000 239 495 0
2019-09-17 11:40:48 GMT 62.307541 18.092041 38,000 239 495 0
2019-09-17 11:40:37 GMT 62.319855 18.134520 38,000 239 494 0
2019-09-17 11:40:27 GMT 62.332375 18.177725 38,000 239 493 0
2019-09-17 11:40:17 GMT 62.345318 18.222622 38,000 239 493 0
2019-09-17 11:40:06 GMT 62.357529 18.265076 38,000 239 493 0
2019-09-17 11:39:55 GMT 62.370174 18.309137 38,000 239 493 0
2019-09-17 11:39:46 GMT 62.382339 18.351542 38,000 239 493 0
2019-09-17 11:39:35 GMT 62.394989 18.395761 38,000 239 493 0
2019-09-17 11:39:24 GMT 62.407372 18.439178 38,000 239 492 0
2019-09-17 11:39:15 GMT 62.419243 18.481010 38,000 239 493 0
2019-09-17 11:39:04 GMT 62.431580 18.524534 38,000 239 493 0
2019-09-17 11:38:53 GMT 62.443916 18.568056 38,000 239 493 0
2019-09-17 11:38:43 GMT 62.456497 18.612467 38,000 239 494 0
2019-09-17 11:38:33 GMT 62.468590 18.655313 38,000 239 494 0
2019-09-17 11:38:22 GMT 62.480968 18.699047 38,000 239 495 0
2019-09-17 11:38:11 GMT 62.493771 18.744577 38,000 239 496 0
2019-09-17 11:38:02 GMT 62.505432 18.785910 38,000 239 497 0
2019-09-17 11:37:51 GMT 62.517563 18.829086 38,000 239 497 0
2019-09-17 11:37:41 GMT 62.529648 18.872375 38,000 239 497 0
2019-09-17 11:37:30 GMT 62.542698 18.918985 38,000 239 496 0
2019-09-17 11:37:21 GMT 62.554523 18.961452 38,000 239 496 0
2019-09-17 11:37:09 GMT 62.567280 19.007298 38,000 239 497 0
2019-09-17 11:36:59 GMT 62.579315 19.050699 38,000 239 497 0
2019-09-17 11:36:49 GMT 62.591347 19.094133 38,000 239 497 0
2019-09-17 11:36:39 GMT 62.603638 19.138395 38,000 239 497 0
2019-09-17 11:36:28 GMT 62.616119 19.183554 38,000 240 496 0
2019-09-17 11:36:16 GMT 62.630676 19.236347 38,000 240 495 0
2019-09-17 11:36:07 GMT 62.642349 19.279074 38,000 240 496 0
2019-09-17 11:35:58 GMT 62.652424 19.315762 38,000 240 496 0
2019-09-17 11:35:47 GMT 62.664368 19.359436 38,000 240 496 0
2019-09-17 11:35:36 GMT 62.676590 19.403788 38,000 240 496 0
2019-09-17 11:35:27 GMT 62.688545 19.447386 38,000 240 496 0
2019-09-17 11:35:16 GMT 62.700699 19.492069 38,000 240 497 0
2019-09-17 11:35:06 GMT 62.712803 19.536755 38,000 240 498 0
2019-09-17 11:34:55 GMT 62.725159 19.582315 38,000 240 497 0
2019-09-17 11:34:45 GMT 62.737053 19.626230 38,000 240 498 0
2019-09-17 11:34:34 GMT 62.749420 19.671936 38,000 240 497 0
2019-09-17 11:34:24 GMT 62.761002 19.714966 38,000 240 497 0
2019-09-17 11:34:20 GMT 62.765450 19.731445 38,000 240 497 0
2019-09-17 11:34:14 GMT 62.773087 19.759928 38,000 240 497 0
2019-09-17 11:34:04 GMT 62.785172 19.804789 38,000 240 498 0
2019-09-17 11:33:52 GMT 62.797668 19.851480 38,000 240 498 0
2019-09-17 11:33:43 GMT 62.809025 19.893915 38,000 240 498 0
2019-09-17 11:33:37 GMT 62.816711 19.922485 38,000 240 498 0
2019-09-17 11:33:32 GMT 62.821548 19.940714 38,000 240 498 0
2019-09-17 11:33:22 GMT 62.833374 19.984945 38,000 240 498 0
2019-09-17 11:33:12 GMT 62.845367 20.030212 38,000 240 499 0
2019-09-17 11:33:01 GMT 62.857578 20.076353 38,000 240 499 0
2019-09-17 11:32:51 GMT 62.869122 20.119875 38,000 240 499 0
2019-09-17 11:32:41 GMT 62.881805 20.167847 38,000 240 499 0
2019-09-17 11:32:30 GMT 62.893341 20.211487 38,000 240 499 0
2019-09-17 11:32:20 GMT 62.905525 20.257837 38,000 240 499 0
2019-09-17 11:32:09 GMT 62.917492 20.303263 38,000 241 499 0
2019-09-17 11:31:58 GMT 62.929230 20.348001 38,000 241 500 0
2019-09-17 11:31:48 GMT 62.941132 20.393677 38,000 241 501 0
2019-09-17 11:31:42 GMT 62.947796 20.419147 38,000 241 501 0
2019-09-17 11:31:38 GMT 62.952869 20.438585 38,000 241 501 0
2019-09-17 11:31:34 GMT 62.957199 20.455221 38,000 241 500 0
2019-09-17 11:31:27 GMT 62.965206 20.486122 38,000 241 500 0
2019-09-17 11:31:22 GMT 62.970699 20.507250 38,000 241 500 0
2019-09-17 11:31:18 GMT 62.976658 20.530067 38,000 241 500 0
2019-09-17 11:31:13 GMT 62.981003 20.546774 38,000 241 499 0
2019-09-17 11:31:07 GMT 62.988529 20.575808 38,000 241 499 0
2019-09-17 11:30:57 GMT 63.001053 20.624186 38,000 241 499 0
2019-09-17 11:30:52 GMT 63.004669 20.638327 38,000 241 499 0
2019-09-17 11:30:46 GMT 63.012405 20.668234 38,000 241 499 0
2019-09-17 11:30:41 GMT 63.018974 20.693806 38,000 241 499 0
2019-09-17 11:30:35 GMT 63.023758 20.712280 38,000 241 499 0
2019-09-17 11:30:28 GMT 63.032616 20.746624 38,000 241 498 0
2019-09-17 11:30:25 GMT 63.035782 20.758879 38,000 241 499 0
2019-09-17 11:30:22 GMT 63.040340 20.776520 38,000 241 498 0
2019-09-17 11:30:15 GMT 63.047333 20.803934 38,000 241 498 0
2019-09-17 11:30:08 GMT 63.054821 20.833036 38,000 241 498 0
2019-09-17 11:30:05 GMT 63.059097 20.849710 38,000 241 498 0
2019-09-17 11:29:58 GMT 63.066330 20.877991 38,000 241 498 0
2019-09-17 11:29:54 GMT 63.071320 20.897421 38,000 241 498 0
2019-09-17 11:29:50 GMT 63.075581 20.914165 38,000 241 498 0
2019-09-17 11:29:44 GMT 63.083496 20.945028 38,000 241 498 0
2019-09-17 11:29:38 GMT 63.089355 20.968018 38,000 241 497 0
2019-09-17 11:29:31 GMT 63.096542 20.996195 38,000 241 497 0
2019-09-17 11:29:28 GMT 63.099701 21.008606 38,000 241 497 0
2019-09-17 11:29:22 GMT 63.107143 21.037762 38,000 241 498 0
2019-09-17 11:29:19 GMT 63.110504 21.051025 38,000 241 498 0
2019-09-17 11:29:12 GMT 63.118561 21.082865 38,000 241 498 0
2019-09-17 11:29:08 GMT 63.123718 21.103256 38,000 241 498 0
2019-09-17 11:29:02 GMT 63.129490 21.126181 38,000 241 497 0
2019-09-17 11:28:57 GMT 63.135307 21.149210 38,000 241 497 0
2019-09-17 11:28:52 GMT 63.140900 21.171366 38,000 241 497 0
2019-09-17 11:28:46 GMT 63.147366 21.197063 38,000 241 497 0
2019-09-17 11:28:42 GMT 63.152939 21.219177 38,000 241 496 0
2019-09-17 11:28:34 GMT 63.160080 21.247458 38,000 241 496 0
2019-09-17 11:28:25 GMT 63.170967 21.290871 38,000 242 497 0
2019-09-17 11:28:16 GMT 63.180744 21.329956 38,000 242 497 0
2019-09-17 11:28:03 GMT 63.195190 21.387634 38,000 242 496 0
2019-09-17 11:27:53 GMT 63.206268 21.432001 38,000 242 497 0
2019-09-17 11:27:42 GMT 63.218216 21.479856 38,000 242 497 0
2019-09-17 11:27:34 GMT 63.227760 21.518152 38,000 242 497 0
2019-09-17 11:27:28 GMT 63.233276 21.540386 38,000 242 497 0
2019-09-17 11:27:25 GMT 63.238377 21.560888 38,000 242 497 0
2019-09-17 11:27:22 GMT 63.240562 21.569788 38,000 242 498 0
2019-09-17 11:27:18 GMT 63.247009 21.595741 38,000 242 498 0
2019-09-17 11:27:12 GMT 63.252525 21.618017 38,000 242 498 0
2019-09-17 11:27:03 GMT 63.261566 21.654581 38,000 242 498 0
2019-09-17 11:26:55 GMT 63.270813 21.692188 38,000 242 498 0
2019-09-17 11:26:51 GMT 63.276077 21.713633 38,000 242 496 0
2019-09-17 11:26:45 GMT 63.281574 21.736012 38,000 242 498 0
2019-09-17 11:26:35 GMT 63.292374 21.779762 38,000 242 496 0
2019-09-17 11:26:25 GMT 63.304432 21.828844 38,000 242 496 0
2019-09-17 11:26:15 GMT 63.314301 21.869026 38,000 242 496 0
2019-09-17 11:26:04 GMT 63.326065 21.917408 38,000 242 496 0
2019-09-17 11:25:48 GMT 63.343678 21.990015 38,000 242 497 0
2019-09-17 11:25:21 GMT 63.372528 22.109457 38,000 242 497 -64
2019-09-17 11:25:03 GMT 63.392395 22.192171 38,000 242 495 0
2019-09-17 11:24:55 GMT 63.459034 22.467810 38,000 242 496 0
2019-09-17 11:24:01 GMT 63.459034 22.467810 38,000 242 496 0
2019-09-17 11:23:11 GMT 63.513748 22.695641 38,000 242 495 0
2019-09-17 11:22:14 GMT 63.575226 22.953955 38,000 243 497 0
2019-09-17 11:22:09 GMT 63.581234 22.979443 38,000 242 498 0
2019-09-17 11:21:46 GMT 63.605301 23.081287 38,000 243 496 0
2019-09-17 11:21:26 GMT 63.627686 23.176821 38,000 243 496 0
2019-09-17 11:20:48 GMT 63.666275 23.342356 38,000 243 494 0
2019-09-17 11:20:42 GMT 63.673637 23.374182 38,000 243 494 0
2019-09-17 11:20:38 GMT 63.677456 23.390553 38,000 243 494 0
2019-09-17 11:20:14 GMT 63.702530 23.498804 38,000 243 494 0
2019-09-17 11:19:51 GMT 63.726425 23.602753 38,000 243 493 0
2019-09-17 11:19:46 GMT 63.732014 23.627308 38,000 243 493 0
2019-09-17 11:19:35 GMT 63.743088 23.675644 38,000 243 492 0
2019-09-17 11:19:08 GMT 63.771538 23.800562 38,000 243 492 0
2019-09-17 11:19:03 GMT 63.776733 23.823429 38,000 243 492 0
2019-09-17 11:18:54 GMT 63.786060 23.864502 38,000 243 492 0
2019-09-17 11:18:44 GMT 63.796818 23.911963 38,000 244 493 0
2019-09-17 11:18:30 GMT 63.814507 23.990845 38,000 244 493 0
2019-09-17 11:18:19 GMT 63.822189 24.024776 38,000 243 494 0
2019-09-17 11:18:14 GMT 63.827774 24.049622 38,000 244 493 0
2019-09-17 11:18:03 GMT 63.842995 24.117626 38,000 244 493 0
2019-09-17 11:17:54 GMT 63.849380 24.146048 38,000 244 493 0
2019-09-17 11:17:39 GMT 63.867096 24.225170 38,000 244 493 0
2019-09-17 11:17:35 GMT 63.872650 24.250011 38,000 244 495 0
2019-09-17 11:17:20 GMT 63.886826 24.313696 38,000 244 495 0
2019-09-17 11:17:06 GMT 63.901371 24.379320 38,000 244 494 0
2019-09-17 11:16:52 GMT 63.916084 24.446009 38,000 244 495 0
2019-09-17 11:16:38 GMT 63.930328 24.510939 38,000 244 495 0
2019-09-17 11:16:30 GMT 63.936008 24.536865 38,000 244 494 0
2019-09-17 11:16:18 GMT 63.946426 24.584127 38,000 244 494 0
2019-09-17 11:16:10 GMT 63.958401 24.638819 38,000 244 493 0
2019-09-17 11:15:55 GMT 63.973160 24.706350 38,000 244 493 0
2019-09-17 11:15:51 GMT 63.974808 24.713852 38,000 244 493 0
2019-09-17 11:15:42 GMT 63.986702 24.768457 38,000 244 493 0
2019-09-17 11:15:32 GMT 63.994125 24.802692 38,000 244 493 0
2019-09-17 11:15:27 GMT 64.000580 24.832376 38,000 244 492 0
2019-09-17 11:15:14 GMT 64.014816 24.898207 38,000 244 491 0
2019-09-17 11:15:06 GMT 64.019394 24.919527 38,000 244 491 0
2019-09-17 11:15:00 GMT 64.025993 24.950062 38,000 244 490 0
2019-09-17 11:14:49 GMT 64.035538 24.994446 38,000 244 490 0
2019-09-17 11:14:44 GMT 64.041687 25.023157 38,000 244 490 0
2019-09-17 11:14:39 GMT 64.045448 25.040697 38,000 244 489 0
2019-09-17 11:14:29 GMT 64.056580 25.092554 38,000 244 489 0
2019-09-17 11:14:17 GMT 64.071198 25.160999 38,000 245 489 0
2019-09-17 11:14:02 GMT 64.082428 25.213940 38,000 245 490 0
2019-09-17 11:13:56 GMT 64.088333 25.241722 38,000 245 489 0
2019-09-17 11:13:46 GMT 64.097961 25.287231 38,000 245 489 0
2019-09-17 11:13:36 GMT 64.111496 25.351269 38,000 245 489 0
2019-09-17 11:13:26 GMT 64.117607 25.380066 38,000 245 489 0
2019-09-17 11:13:15 GMT 64.127975 25.429335 38,000 245 489 0
2019-09-17 11:13:07 GMT 64.136787 25.471144 38,000 245 489 0
2019-09-17 11:13:01 GMT 64.141663 25.494303 38,000 245 489 0
2019-09-17 11:12:52 GMT 64.152008 25.543652 38,000 245 489 0
2019-09-17 11:12:45 GMT 64.157318 25.568777 38,000 245 488 0
2019-09-17 11:12:41 GMT 64.162155 25.591991 38,000 245 488 0
2019-09-17 11:12:34 GMT 64.168579 25.622864 38,000 245 489 0
2019-09-17 11:12:26 GMT 64.176964 25.662964 38,000 245 490 0
2019-09-17 11:12:20 GMT 64.181618 25.685375 38,000 245 490 0
2019-09-17 11:12:15 GMT 64.186844 25.710649 38,000 245 490 0
2019-09-17 11:12:11 GMT 64.191879 25.734945 38,000 245 490 0
2019-09-17 11:12:03 GMT 64.199249 25.770544 38,000 245 490 0
2019-09-17 11:12:00 GMT 64.201401 25.780848 38,000 245 490 0
2019-09-17 11:11:54 GMT 64.206848 25.807104 38,000 245 490 0
2019-09-17 11:11:42 GMT 64.218811 25.865223 38,000 245 491 0
2019-09-17 11:11:39 GMT 64.222092 25.881147 38,000 245 490 0
2019-09-17 11:11:34 GMT 64.226166 25.900928 38,000 245 490 0
2019-09-17 11:11:25 GMT 64.235802 25.947840 38,000 245 489 0
2019-09-17 11:11:22 GMT 64.239250 25.964758 38,000 245 489 0
2019-09-17 11:11:13 GMT 64.246399 25.999462 38,000 245 489 0
2019-09-17 11:11:04 GMT 64.255234 26.042562 38,000 245 489 0
2019-09-17 11:11:01 GMT 64.258301 26.057669 38,000 245 489 0
2019-09-17 11:10:57 GMT 64.261543 26.073523 38,000 245 489 0
2019-09-17 11:10:53 GMT 64.265991 26.095169 38,000 245 489 0
2019-09-17 11:10:48 GMT 64.270981 26.119556 38,000 245 489 0
2019-09-17 11:10:43 GMT 64.275375 26.141167 38,000 245 489 0
2019-09-17 11:10:32 GMT 64.285858 26.192835 38,000 245 488 0
2019-09-17 11:10:25 GMT 64.293869 26.232386 38,000 245 488 0
2019-09-17 11:10:20 GMT 64.304749 26.285934 38,000 245 488 0
2019-09-17 11:10:12 GMT 64.304749 26.285934 38,000 246 488 0
2019-09-17 11:10:05 GMT 64.311592 26.319809 38,000 246 488 0
2019-09-17 11:10:02 GMT 64.314835 26.335768 38,000 246 488 0
2019-09-17 11:09:59 GMT 64.317688 26.349907 38,000 246 488 0
2019-09-17 11:09:56 GMT 64.320145 26.362135 38,000 246 488 0
2019-09-17 11:09:52 GMT 64.324677 26.384766 38,000 246 489 0
2019-09-17 11:09:48 GMT 64.327515 26.398888 38,000 246 489 0
2019-09-17 11:09:44 GMT 64.332077 26.421547 38,000 246 489 0
2019-09-17 11:09:40 GMT 64.335098 26.436653 38,000 246 489 0
2019-09-17 11:09:32 GMT 64.343010 26.476250 38,000 246 489 0
2019-09-17 11:09:29 GMT 64.345619 26.489410 38,000 246 488 0
2019-09-17 11:09:21 GMT 64.367249 26.598009 38,000 246 488 0
2019-09-17 11:09:10 GMT 64.367249 26.598009 38,000 246 488 0
2019-09-17 11:09:00 GMT 64.373085 26.627197 38,000 246 487 0
2019-09-17 11:08:54 GMT 64.378098 26.652613 38,000 246 487 0
2019-09-17 11:08:51 GMT 64.381485 26.669641 38,000 246 487 0
2019-09-17 11:08:39 GMT 64.392288 26.724243 38,000 246 486 0
2019-09-17 11:08:29 GMT 64.402138 26.774254 38,000 246 485 0
2019-09-17 11:08:24 GMT 64.407166 26.799719 38,000 246 485 0
2019-09-17 11:08:18 GMT 64.412193 26.825066 38,000 246 485 0
2019-09-17 11:08:13 GMT 64.418152 26.855278 38,000 246 485 0
2019-09-17 11:08:09 GMT 64.421310 26.871241 38,000 246 485 0
2019-09-17 11:08:00 GMT 64.428726 26.909033 38,000 246 486 0
2019-09-17 11:07:56 GMT 64.433533 26.933533 38,000 246 486 0
2019-09-17 11:07:50 GMT 64.438293 26.958141 38,000 246 486 0
2019-09-17 11:07:47 GMT 64.445297 26.993958 38,000 246 486 0
2019-09-17 11:07:42 GMT 64.445297 26.993958 38,000 246 486 0
2019-09-17 11:07:37 GMT 64.449570 27.015724 38,000 246 486 0
2019-09-17 11:07:28 GMT 64.458740 27.062988 38,000 246 486 0
2019-09-17 11:07:17 GMT 64.468750 27.114029 38,000 246 486 0
2019-09-17 11:07:07 GMT 64.477753 27.160400 38,000 246 486 0
2019-09-17 11:07:02 GMT 64.483086 27.187958 38,000 246 486 0
2019-09-17 11:06:59 GMT 64.485489 27.200281 38,000 246 487 0
2019-09-17 11:06:56 GMT 64.487320 27.209728 38,000 247 487 0
2019-09-17 11:06:50 GMT 64.493332 27.241173 38,000 247 487 0
2019-09-17 11:06:46 GMT 64.496964 27.260170 38,000 247 487 0
2019-09-17 11:06:36 GMT 64.509766 27.326775 38,000 247 487 0
2019-09-17 11:06:30 GMT 64.512497 27.341125 38,000 247 487 0
2019-09-17 11:06:22 GMT 64.524704 27.404938 38,000 247 487 0
2019-09-17 11:06:16 GMT 64.524704 27.404938 38,000 247 487 0
2019-09-17 11:06:06 GMT 64.534012 27.453516 38,000 247 487 0
2019-09-17 11:05:54 GMT 64.548203 27.528004 38,000 247 487 0
2019-09-17 11:05:44 GMT 64.553284 27.554701 38,000 247 487 0
2019-09-17 11:05:37 GMT 64.559990 27.590103 38,000 247 488 0
2019-09-17 11:05:34 GMT 64.562508 27.603493 38,000 247 488 0
2019-09-17 11:05:25 GMT 64.571587 27.651329 38,000 247 488 0
2019-09-17 11:05:17 GMT 64.578644 27.688732 38,000 247 488 0
2019-09-17 11:05:14 GMT 64.580795 27.700270 38,000 247 488 0
2019-09-17 11:05:09 GMT 64.585320 27.724228 38,000 247 488 0
2019-09-17 11:05:04 GMT 64.590019 27.749290 38,000 247 489 0
2019-09-17 11:04:59 GMT 64.594162 27.771460 38,000 247 489 0
2019-09-17 11:04:56 GMT 64.596680 27.784863 38,000 247 489 0
2019-09-17 11:04:53 GMT 64.598877 27.796509 38,000 247 489 0
2019-09-17 11:04:49 GMT 64.603912 27.823425 38,000 247 490 0
2019-09-17 11:04:43 GMT 64.608452 27.847481 38,000 247 490 0
2019-09-17 11:04:39 GMT 64.612083 27.866821 38,000 247 490 0
2019-09-17 11:04:35 GMT 64.615494 27.885168 38,000 247 490 0
2019-09-17 11:04:32 GMT 64.618378 27.900549 38,000 247 490 0
2019-09-17 11:04:26 GMT 64.623627 27.928619 38,000 247 490 0
2019-09-17 11:04:23 GMT 64.627075 27.947021 38,000 247 491 0
2019-09-17 11:04:17 GMT 64.636093 27.995361 38,000 247 491 0
2019-09-17 11:04:13 GMT 64.636093 27.995361 38,000 247 492 0
2019-09-17 11:04:09 GMT 64.640076 28.016785 38,000 247 492 0
2019-09-17 11:04:05 GMT 64.645477 28.045898 38,000 247 492 0
2019-09-17 11:04:02 GMT 64.645477 28.045898 38,000 247 492 0
2019-09-17 11:03:58 GMT 64.649048 28.065344 38,000 247 492 0
2019-09-17 11:03:55 GMT 64.652298 28.082811 38,000 247 492 0
2019-09-17 11:03:52 GMT 64.654449 28.094458 38,000 247 492 0
2019-09-17 11:03:48 GMT 64.658066 28.113905 38,000 247 492 0
2019-09-17 11:03:45 GMT 64.661636 28.133350 38,000 247 492 0
2019-09-17 11:03:42 GMT 64.663788 28.144995 38,000 247 492 0
2019-09-17 11:03:38 GMT 64.667358 28.164440 38,000 247 492 0
2019-09-17 11:03:34 GMT 64.671661 28.187733 38,000 247 491 0
2019-09-17 11:03:31 GMT 64.672928 28.194580 38,000 247 491 0
2019-09-17 11:03:27 GMT 64.676697 28.214977 38,000 247 491 -64
2019-09-17 11:03:19 GMT 64.687965 28.276291 38,000 247 491 0
2019-09-17 11:03:11 GMT 64.691879 28.297577 38,000 247 491 0
2019-09-17 11:03:04 GMT 64.698074 28.331654 38,000 247 491 0
2019-09-17 11:03:01 GMT 64.700394 28.344269 38,000 247 491 0
2019-09-17 11:02:54 GMT 64.707001 28.380322 38,000 247 491 0
2019-09-17 11:02:49 GMT 64.711105 28.402748 38,000 247 491 0
2019-09-17 11:02:43 GMT 64.716614 28.432837 38,000 247 491 0
2019-09-17 11:02:40 GMT 64.718719 28.444592 38,000 247 491 0
2019-09-17 11:02:32 GMT 64.725998 28.484459 38,000 247 491 0
2019-09-17 11:02:24 GMT 64.736610 28.542824 38,000 247 491 0
2019-09-17 11:02:15 GMT 64.741745 28.571156 38,000 247 491 0
2019-09-17 11:02:11 GMT 64.744904 28.588623 38,000 247 491 0
2019-09-17 11:02:06 GMT 64.748947 28.611145 38,000 248 492 0
2019-09-17 11:02:02 GMT 64.752487 28.630600 38,000 248 492 0
2019-09-17 11:01:55 GMT 64.758163 28.661842 38,000 248 492 0
2019-09-17 11:01:52 GMT 64.761330 28.679466 38,000 248 492 0
2019-09-17 11:01:46 GMT 64.766968 28.710823 38,000 248 492 0
2019-09-17 11:01:42 GMT 64.770454 28.730392 38,000 248 492 0
2019-09-17 11:01:37 GMT 64.774689 28.753853 38,000 248 492 0
2019-09-17 11:01:34 GMT 64.776627 28.764624 38,000 248 492 0
2019-09-17 11:01:31 GMT 64.779785 28.782312 38,000 248 492 0
2019-09-17 11:01:28 GMT 64.782578 28.798021 38,000 248 492 0
2019-09-17 11:01:23 GMT 64.786240 28.818512 38,000 248 492 0
2019-09-17 11:01:19 GMT 64.791122 28.845978 38,000 248 491 0
2019-09-17 11:01:15 GMT 64.794434 28.864599 38,000 248 491 0
2019-09-17 11:01:10 GMT 64.798279 28.886244 38,000 248 491 0
2019-09-17 11:01:00 GMT 64.810410 28.954906 38,000 248 492 0
2019-09-17 11:00:54 GMT 64.814575 28.978527 38,000 248 492 0
2019-09-17 11:00:51 GMT 64.815628 28.984461 38,000 248 491 0
2019-09-17 11:00:41 GMT 64.824234 29.033678 38,000 248 492 0
2019-09-17 11:00:30 GMT 64.832794 29.083008 38,000 248 492 0
2019-09-17 11:00:18 GMT 64.846565 29.162865 38,000 249 491 0
2019-09-17 11:00:09 GMT 64.850464 29.185619 38,000 249 492 0
2019-09-17 10:59:57 GMT 64.860069 29.242058 38,000 249 492 0
2019-09-17 10:59:51 GMT 64.865097 29.271698 38,000 249 491 0
2019-09-17 10:59:44 GMT 64.870972 29.306360 38,000 249 492 0
2019-09-17 10:59:39 GMT 64.875641 29.334154 38,000 249 492 0
2019-09-17 10:59:35 GMT 64.879807 29.359016 38,000 249 492 0
2019-09-17 10:59:29 GMT 64.884460 29.386711 38,000 249 492 0
2019-09-17 10:59:22 GMT 64.889282 29.415564 38,000 249 492 0
2019-09-17 10:59:18 GMT 64.892899 29.437317 38,000 249 492 0
2019-09-17 10:59:07 GMT 64.902061 29.491882 38,000 249 491 0
2019-09-17 10:59:02 GMT 64.906479 29.517632 38,000 248 491 0
2019-09-17 10:58:54 GMT 64.917465 29.576111 38,000 245 491 0
2019-09-17 10:58:48 GMT 64.920364 29.590576 38,000 248 492 64
2019-09-17 10:58:34 GMT 64.930939 29.654078 38,000 253 491 64
2019-09-17 10:58:26 GMT 64.937859 29.716988 38,000 261 491 64
2019-09-17 10:58:12 GMT 64.942154 29.789867 38,000 264 490 0
2019-09-17 10:58:07 GMT 64.942749 29.801445 38,000 264 490 0
2019-09-17 10:57:58 GMT 64.945862 29.863916 38,000 264 490 0
2019-09-17 10:57:44 GMT 64.950394 29.956860 38,000 264 489 0
2019-09-17 10:57:37 GMT 64.950394 29.956860 38,000 264 489 0
2019-09-17 10:57:30 GMT 64.953125 30.012932 38,000 264 489 0
2019-09-17 10:57:22 GMT 64.954102 30.032995 38,000 264 489 0
2019-09-17 10:57:14 GMT 64.956482 30.082626 38,000 264 489 0
2019-09-17 10:57:01 GMT 64.959366 30.142859 38,000 264 488 0
2019-09-17 10:56:52 GMT 64.961510 30.188370 38,000 264 489 0
2019-09-17 10:56:45 GMT 64.963371 30.228539 38,000 264 488 0
2019-09-17 10:56:42 GMT 64.964035 30.242285 38,000 264 488 0
2019-09-17 10:56:32 GMT 64.966690 30.299414 38,000 264 488 0
2019-09-17 10:56:20 GMT 64.970680 30.385094 38,000 264 489 0
2019-09-17 10:56:12 GMT 64.971512 30.404091 38,000 264 489 0
2019-09-17 10:56:02 GMT 64.974106 30.460255 38,000 264 489 0
2019-09-17 10:55:49 GMT 64.977005 30.524940 38,000 264 489 0
2019-09-17 10:55:40 GMT 64.979187 30.572535 38,000 264 489 0
2019-09-17 10:55:34 GMT 64.980698 30.606482 38,000 265 489 0
2019-09-17 10:55:29 GMT 64.981750 30.629772 38,000 265 489 0
2019-09-17 10:55:18 GMT 64.984268 30.687012 38,000 265 490 0
2019-09-17 10:55:09 GMT 64.986504 30.739059 38,000 265 490 0
2019-09-17 10:55:03 GMT 64.987839 30.769958 38,000 265 491 0
2019-09-17 10:54:56 GMT 64.990372 30.828438 38,000 265 491 0
2019-09-17 10:54:49 GMT 64.991089 30.844336 38,000 265 491 0
2019-09-17 10:54:42 GMT 64.992599 30.879478 38,000 265 491 0
2019-09-17 10:54:39 GMT 64.993484 30.900764 38,000 265 491 0
2019-09-17 10:54:28 GMT 64.996765 30.978479 38,000 265 491 0
2019-09-17 10:54:23 GMT 64.997269 30.991333 38,000 265 491 0
2019-09-17 10:54:17 GMT 64.998238 31.013603 38,000 265 491 0
2019-09-17 10:54:12 GMT 64.999397 31.041298 38,000 265 491 0
2019-09-17 10:54:08 GMT 65.000336 31.063732 38,000 265 491 0
2019-09-17 10:54:01 GMT 65.001801 31.099878 38,000 265 491 0
2019-09-17 10:53:57 GMT 65.002670 31.121191 38,000 265 491 0
2019-09-17 10:53:46 GMT 65.006012 31.202051 38,000 265 491 0
2019-09-17 10:53:36 GMT 65.007172 31.230812 38,000 265 491 0
2019-09-17 10:53:26 GMT 65.009361 31.286201 38,000 265 491 0
2019-09-17 10:53:15 GMT 65.011551 31.341476 38,000 265 491 0
2019-09-17 10:53:11 GMT 65.012650 31.370251 38,000 265 491 0
2019-09-17 10:53:03 GMT 65.014984 31.429907 38,000 265 491 0
2019-09-17 10:52:55 GMT 65.015877 31.452255 38,000 265 492 0
2019-09-17 10:52:45 GMT 65.017929 31.505585 38,000 265 492 0
2019-09-17 10:52:33 GMT 65.020157 31.564381 38,000 265 491 0
2019-09-17 10:52:24 GMT 65.022072 31.614532 38,000 265 491 0
2019-09-17 10:52:14 GMT 65.024094 31.668970 38,000 265 492 0
2019-09-17 10:52:03 GMT 65.026215 31.725655 38,000 265 492 0
2019-09-17 10:51:54 GMT 65.028313 31.783447 38,000 265 492 0
2019-09-17 10:51:43 GMT 65.030266 31.836891 38,000 266 492 0
2019-09-17 10:51:31 GMT 65.032379 31.895838 38,000 266 493 0
2019-09-17 10:51:21 GMT 65.034546 31.956825 38,000 266 493 0
2019-09-17 10:51:10 GMT 65.036362 32.009438 38,000 266 493 0
2019-09-17 10:51:00 GMT 65.038177 32.061996 38,000 266 492 0
2019-09-17 10:50:50 GMT 65.040085 32.117615 38,000 266 492 0
2019-09-17 10:50:40 GMT 65.041946 32.172146 38,000 266 491 0
2019-09-17 10:50:29 GMT 65.043823 32.227734 38,000 266 491 0
2019-09-17 10:50:19 GMT 65.045700 32.283325 38,000 266 491 0
2019-09-17 10:50:09 GMT 65.047531 32.338917 38,000 266 491 0
2019-09-17 10:49:58 GMT 65.049408 32.396706 38,000 266 491 0
2019-09-17 10:49:47 GMT 65.051216 32.453384 38,000 266 491 0
2019-09-17 10:49:38 GMT 65.052841 32.504654 38,000 266 491 0
2019-09-17 10:49:27 GMT 65.054535 32.559193 38,000 266 491 0
2019-09-17 10:49:17 GMT 65.056335 32.615776 38,000 266 491 0
2019-09-17 10:49:05 GMT 65.058937 32.701263 38,000 266 491 0
2019-09-17 10:48:56 GMT 65.059731 32.726898 38,000 266 491 0
2019-09-17 10:48:45 GMT 65.061401 32.783642 38,000 267 491 0
2019-09-17 10:48:36 GMT 65.063095 32.841320 38,000 267 491 0
2019-09-17 10:48:25 GMT 65.064667 32.893753 38,000 267 491 0
2019-09-17 10:48:14 GMT 65.066254 32.950523 38,000 267 491 0
2019-09-17 10:48:04 GMT 65.067810 33.006115 38,000 267 491 0
2019-09-17 10:47:54 GMT 65.069366 33.060722 38,000 267 491 0
2019-09-17 10:47:43 GMT 65.070923 33.117409 38,000 267 491 0
2019-09-17 10:47:33 GMT 65.072388 33.170799 38,000 267 491 64
2019-09-17 10:47:22 GMT 65.073944 33.228588 38,000 267 489 0
2019-09-17 10:47:12 GMT 65.075363 33.281982 38,000 267 489 0
2019-09-17 10:47:03 GMT 65.076813 33.336411 38,000 267 489 0
2019-09-17 10:46:52 GMT 65.078217 33.389854 38,000 267 489 0
2019-09-17 10:46:42 GMT 65.079666 33.446449 38,000 267 489 0
2019-09-17 10:46:32 GMT 65.081009 33.500748 38,000 267 489 0
2019-09-17 10:46:21 GMT 65.082497 33.560486 38,000 267 488 0
2019-09-17 10:46:09 GMT 65.083923 33.619152 38,000 267 488 0
2019-09-17 10:45:59 GMT 65.085243 33.673553 38,000 267 488 0
2019-09-17 10:45:48 GMT 65.086639 33.733292 38,000 267 488 0
2019-09-17 10:45:39 GMT 65.087753 33.782387 38,000 267 489 0
2019-09-17 10:45:28 GMT 65.089058 33.837891 38,000 267 489 0
2019-09-17 10:45:18 GMT 65.090271 33.893394 38,000 267 490 0
2019-09-17 10:45:07 GMT 65.091476 33.949013 38,000 268 490 0
2019-09-17 10:44:57 GMT 65.092690 34.004745 38,000 268 491 0
2019-09-17 10:44:46 GMT 65.093857 34.061684 38,000 268 492 0
2019-09-17 10:44:36 GMT 65.094971 34.116440 38,000 268 492 0
2019-09-17 10:44:26 GMT 65.096100 34.171326 38,000 268 492 0
2019-09-17 10:44:16 GMT 65.097160 34.226074 38,000 268 492 0
2019-09-17 10:44:05 GMT 65.098389 34.289539 38,000 268 492 -64
2019-09-17 10:43:53 GMT 65.099533 34.347546 38,000 268 492 0
2019-09-17 10:43:42 GMT 65.100746 34.404602 38,000 268 492 64
2019-09-17 10:43:33 GMT 65.101959 34.463783 38,000 268 493 0
2019-09-17 10:43:22 GMT 65.103027 34.516525 38,000 268 493 0
2019-09-17 10:43:12 GMT 65.104141 34.574661 38,000 268 493 0
2019-09-17 10:43:00 GMT 65.105309 34.632797 38,000 268 492 0
2019-09-17 10:42:50 GMT 65.106331 34.686584 38,000 268 492 0
2019-09-17 10:42:40 GMT 65.107399 34.740372 38,000 268 492 0
2019-09-17 10:42:30 GMT 65.108414 34.797436 38,000 268 492 0
2019-09-17 10:42:20 GMT 65.109406 34.852180 38,000 268 492 0
2019-09-17 10:42:09 GMT 65.110382 34.909168 38,000 268 491 0
2019-09-17 10:41:59 GMT 65.111298 34.964977 38,000 268 491 0
2019-09-17 10:41:47 GMT 65.112289 35.023956 38,000 268 491 0
2019-09-17 10:41:37 GMT 65.113174 35.078686 38,000 268 491 0
2019-09-17 10:41:28 GMT 65.114059 35.131187 38,000 268 491 0
2019-09-17 10:41:17 GMT 65.115005 35.188110 38,000 268 491 0
2019-09-17 10:41:06 GMT 65.115967 35.246010 38,000 268 490 0
2019-09-17 10:40:54 GMT 65.116989 35.309258 38,000 268 490 0
2019-09-17 10:40:44 GMT 65.117844 35.363892 38,000 268 491 0
2019-09-17 10:40:33 GMT 65.118759 35.423012 38,000 268 492 0
2019-09-17 10:40:22 GMT 65.119690 35.483322 38,000 268 493 0
2019-09-17 10:40:12 GMT 65.120590 35.542530 38,000 269 493 0
2019-09-17 10:40:01 GMT 65.121368 35.596474 38,000 269 493 0
2019-09-17 10:39:50 GMT 65.122238 35.656898 38,000 269 493 0
2019-09-17 10:39:40 GMT 65.123093 35.716209 38,000 269 493 0
2019-09-17 10:39:29 GMT 65.123787 35.772285 38,000 269 493 0
2019-09-17 10:39:18 GMT 65.124527 35.829384 38,000 269 493 0
2019-09-17 10:39:07 GMT 65.125229 35.886612 38,000 269 493 0
2019-09-17 10:38:56 GMT 65.125931 35.947037 38,000 269 494 0
2019-09-17 10:38:46 GMT 65.126579 36.001167 38,000 269 495 0
2019-09-17 10:38:35 GMT 65.127190 36.057358 38,000 269 495 0
2019-09-17 10:38:26 GMT 65.127747 36.113777 38,000 269 495 0
2019-09-17 10:38:15 GMT 65.128304 36.167908 38,000 269 495 0
2019-09-17 10:38:05 GMT 65.128906 36.224213 38,000 269 495 0
2019-09-17 10:37:55 GMT 65.129517 36.280518 38,000 269 494 0
2019-09-17 10:37:44 GMT 65.130066 36.337830 38,000 269 494 0
2019-09-17 10:37:29 GMT 65.130768 36.414642 38,000 269 494 0
2019-09-17 10:37:24 GMT 65.131096 36.451378 38,000 269 495 0
2019-09-17 10:37:09 GMT 65.131653 36.522903 38,000 269 495 0
2019-09-17 10:36:56 GMT 65.132263 36.597656 38,000 269 495 0
2019-09-17 10:36:53 GMT 65.132446 36.619301 38,000 269 495 0
2019-09-17 10:36:42 GMT 65.132820 36.670189 38,000 269 495 0
2019-09-17 10:36:32 GMT 65.133286 36.726608 38,000 269 496 0
2019-09-17 10:36:22 GMT 65.133705 36.782913 38,000 270 496 0
2019-09-17 10:36:10 GMT 65.134094 36.842541 38,000 270 496 0
2019-09-17 10:36:00 GMT 65.134415 36.896812 38,000 270 496 0
2019-09-17 10:35:50 GMT 65.134689 36.951195 38,000 270 497 0
2019-09-17 10:35:40 GMT 65.134918 37.007668 38,000 270 496 0
2019-09-17 10:35:30 GMT 65.135147 37.064137 38,000 270 496 0
2019-09-17 10:35:20 GMT 65.135376 37.123833 38,000 270 496 0
2019-09-17 10:35:08 GMT 65.135567 37.177963 38,000 270 495 0
2019-09-17 10:34:59 GMT 65.135742 37.235413 38,000 270 495 0
2019-09-17 10:34:48 GMT 65.135841 37.290573 38,000 270 494 0
2019-09-17 10:34:38 GMT 65.135925 37.345715 38,000 270 494 0
2019-09-17 10:34:27 GMT 65.135986 37.405128 38,000 270 493 0
2019-09-17 10:34:16 GMT 65.135971 37.466675 38,000 270 493 0
2019-09-17 10:34:06 GMT 65.136017 37.516224 38,000 270 492 0
2019-09-17 10:33:56 GMT 65.136032 37.571182 38,000 270 492 0
2019-09-17 10:33:45 GMT 65.136200 37.630371 38,000 270 491 0
2019-09-17 10:33:35 GMT 65.136406 37.682991 38,000 270 491 0
2019-09-17 10:33:23 GMT 65.136566 37.746387 38,000 270 490 0
2019-09-17 10:33:14 GMT 65.137054 37.792511 38,000 265 488 0
2019-09-17 10:33:04 GMT 65.139862 37.848778 38,000 259 488 -64
2019-09-17 10:32:53 GMT 65.145447 37.904919 38,000 253 487 0
2019-09-17 10:32:44 GMT 65.152374 37.952385 38,000 248 488 64
2019-09-17 10:32:33 GMT 65.162430 38.003578 38,000 241 489 64
2019-09-17 10:32:23 GMT 65.173965 38.049721 38,000 239 489 0
2019-09-17 10:32:13 GMT 65.186188 38.097401 38,000 239 490 0
2019-09-17 10:32:02 GMT 65.198647 38.146019 38,000 239 490 0
2019-09-17 10:31:53 GMT 65.210838 38.193855 38,000 239 490 0
2019-09-17 10:31:42 GMT 65.222305 38.238903 38,000 239 489 0
2019-09-17 10:31:31 GMT 65.234940 38.288673 38,000 239 490 0
2019-09-17 10:31:22 GMT 65.247116 38.336571 38,000 239 490 0
2019-09-17 10:31:11 GMT 65.258606 38.381767 38,000 239 490 0
2019-09-17 10:31:01 GMT 65.270508 38.428967 38,000 239 490 0
2019-09-17 10:30:51 GMT 65.283325 38.479843 38,000 239 490 0
We lost coverage of the aircraft here for a total of 56 minutes
2019-09-17 09:35:11 GMT 67.949928 56.506611 36,000 258 489 0
2019-09-17 09:34:51 GMT 67.959328 56.624058 36,000 258 489 0
2019-09-17 09:34:44 GMT 67.963058 56.671143 36,000 259 490 0
2019-09-17 09:33:30 GMT 67.996765 57.103935 36,000 259 492 0
2019-09-17 09:33:26 GMT 67.998230 57.122787 36,000 259 492 0
2019-09-17 09:33:12 GMT 68.004669 57.206856 36,000 259 492 0
2019-09-17 09:32:43 GMT 68.017799 57.382507 36,000 259 492 0
2019-09-17 09:31:36 GMT 68.046753 57.776707 36,000 260 491 0
2019-09-17 09:31:31 GMT 68.048859 57.806438 36,000 260 491 0
2019-09-17 09:30:55 GMT 68.064537 58.026516 36,000 260 491 0
We lost coverage of the aircraft here for a total of 268 minutes
2019-09-17 05:02:42 GMT 53.816296 126.918182 34,000 321 486 0

Making use of Plane Finder data

You are free to use the raw flight data, aircraft information and images provided in this report for your own purposes provided the data is correctly attributed to Plane Finder. We ask that you please credit Plane Finder and link to planefinder.net in close proximity to the content.

Optionally one of the following logos (no smaller then 150x24px) can be used and must link to planefinder.net

Embedding the Plane Finder map

You are welcome to embed the Plane Finder playback map on your website to offer visitors a more interactive experience. We suggest using the following HTML code:

<iframe src="//planefinder.net/data/report/BA8-G-STBF-7700-squawk-2019-09-17/map" width="800" height="600" seamless="seamless"></iframe>

Where our data comes from

Plane Finder has a global network of data feeds and antenna radars that receive data broadcast directly from aircraft. The primary technologies used are ADS-B and MLAT. We also show feeds from the FAA and a FLARM glider feed.

Click here to find out more about the Plane Finder network.

How we collect our data